<?xml version="1.0" encoding="UTF-8" standalone="no" ?><gpx xmlns="http://www.topografix.com/GPX/1/1" xmlns:gpxx="http://www.garmin.com/xmlschemas/GpxExtensions/v3" xmlns:wptx1="http://www.garmin.com/xmlschemas/WaypointExtension/v1" xmlns:gpxtpx="http://www.garmin.com/xmlschemas/TrackPointExtension/v1" creator="GuideVTT.com" version="1.1" xmlns:xsi="http://www.w3.org/2001/XMLSchema-instance" xsi:schemaLocation="http://www.topografix.com/GPX/1/1 http://www.topografix.com/GPX/1/1/gpx.xsd http://www.garmin.com/xmlschemas/GpxExtensions/v3 http://www8.garmin.com/xmlschemas/GpxExtensionsv3.xsd http://www.garmin.com/xmlschemas/WaypointExtension/v1 http://www8.garmin.com/xmlschemas/WaypointExtensionv1.xsd http://www.garmin.com/xmlschemas/TrackPointExtension/v1 http://www.garmin.com/xmlschemas/TrackPointExtensionv1.xsd">
<metadata><link href="http://www.garmin.com"><text>Garmin International</text></link><time>2013-06-22T15:13:50Z</time></metadata>
<trk><name>tvh-evolene_les_hauderes.gpx</name><extensions><gpxx:TrackExtension><gpxx:DisplayColor>Cyan</gpxx:DisplayColor></gpxx:TrackExtension></extensions><trkseg>
<trkpt lat="46.11163524" lon="7.49787977"><ele>1384.916504</ele><time>2008-09-08T13:29:36Z</time></trkpt>
<trkpt lat="46.11165712" lon="7.49784063"><ele>1383.474365</ele><time>2008-09-08T13:29:41Z</time></trkpt>
<trkpt lat="46.11123492" lon="7.49817347"><ele>1383.955078</ele><time>2008-09-08T13:29:55Z</time></trkpt>
<trkpt lat="46.11086804" lon="7.49854378"><ele>1383.955078</ele><time>2008-09-08T13:30:03Z</time></trkpt>
<trkpt lat="46.11023446" lon="7.49918542"><ele>1381.551758</ele><time>2008-09-08T13:30:16Z</time></trkpt>
<trkpt lat="46.10975392" lon="7.49951106"><ele>1382.032471</ele><time>2008-09-08T13:30:25Z</time></trkpt>
<trkpt lat="46.10960933" lon="7.49960686"><ele>1382.032471</ele><time>2008-09-08T13:30:28Z</time></trkpt>
<trkpt lat="46.10946491" lon="7.49955825"><ele>1381.071289</ele><time>2008-09-08T13:30:32Z</time></trkpt>
<trkpt lat="46.10960523" lon="7.49946177"><ele>1379.148438</ele><time>2008-09-08T13:30:35Z</time></trkpt>
<trkpt lat="46.11006523" lon="7.49914351"><ele>1375.303223</ele><time>2008-09-08T13:30:42Z</time></trkpt>
<trkpt lat="46.11043160" lon="7.49867739"><ele>1371.457764</ele><time>2008-09-08T13:30:48Z</time></trkpt>
<trkpt lat="46.11038256" lon="7.49734785"><ele>1367.612549</ele><time>2008-09-08T13:31:00Z</time></trkpt>
<trkpt lat="46.11048298" lon="7.49707846"><ele>1366.651367</ele><time>2008-09-08T13:31:03Z</time></trkpt>
<trkpt lat="46.11094834" lon="7.49623206"><ele>1364.248047</ele><time>2008-09-08T13:31:13Z</time></trkpt>
<trkpt lat="46.11116175" lon="7.49588982"><ele>1363.286865</ele><time>2008-09-08T13:31:17Z</time></trkpt>
<trkpt lat="46.11148763" lon="7.49558531"><ele>1362.325439</ele><time>2008-09-08T13:31:22Z</time></trkpt>
<trkpt lat="46.11182165" lon="7.49507016"><ele>1360.883545</ele><time>2008-09-08T13:31:29Z</time></trkpt>
<trkpt lat="46.11202575" lon="7.49468643"><ele>1359.44165</ele><time>2008-09-08T13:31:34Z</time></trkpt>
<trkpt lat="46.11232138" lon="7.49426583"><ele>1357.999756</ele><time>2008-09-08T13:31:40Z</time></trkpt>
<trkpt lat="46.11240244" lon="7.49394522"><ele>1357.519043</ele><time>2008-09-08T13:31:45Z</time></trkpt>
<trkpt lat="46.11224947" lon="7.49382905"><ele>1356.076904</ele><time>2008-09-08T13:31:49Z</time></trkpt>
<trkpt lat="46.11201410" lon="7.49384380"><ele>1353.192871</ele><time>2008-09-08T13:31:53Z</time></trkpt>
<trkpt lat="46.11178536" lon="7.49375277"><ele>1352.231445</ele><time>2008-09-08T13:31:56Z</time></trkpt>
<trkpt lat="46.11149602" lon="7.49358564"><ele>1352.231445</ele><time>2008-09-08T13:32:00Z</time></trkpt>
<trkpt lat="46.11113266" lon="7.49356334"><ele>1350.789551</ele><time>2008-09-08T13:32:05Z</time></trkpt>
<trkpt lat="46.11087936" lon="7.49373919"><ele>1349.828369</ele><time>2008-09-08T13:32:09Z</time></trkpt>
<trkpt lat="46.11051969" lon="7.49397523"><ele>1348.38623</ele><time>2008-09-08T13:32:14Z</time></trkpt>
<trkpt lat="46.10995308" lon="7.49441184"><ele>1351.750977</ele><time>2008-09-08T13:32:22Z</time></trkpt>
<trkpt lat="46.10977354" lon="7.49439625"><ele>1353.673584</ele><time>2008-09-08T13:32:26Z</time></trkpt>
<trkpt lat="46.10972190" lon="7.49429164"><ele>1353.673584</ele><time>2008-09-08T13:32:28Z</time></trkpt>
<trkpt lat="46.10949459" lon="7.49411579"><ele>1353.192871</ele><time>2008-09-08T13:32:33Z</time></trkpt>
<trkpt lat="46.10915386" lon="7.49413205"><ele>1356.076904</ele><time>2008-09-08T13:32:41Z</time></trkpt>
<trkpt lat="46.10877802" lon="7.49426918"><ele>1358.480225</ele><time>2008-09-08T13:32:51Z</time></trkpt>
<trkpt lat="46.10869378" lon="7.49429843"><ele>1358.480225</ele><time>2008-09-08T13:32:53Z</time></trkpt>
<trkpt lat="46.10850619" lon="7.49442659"><ele>1359.922119</ele><time>2008-09-08T13:32:58Z</time></trkpt>
<trkpt lat="46.10810855" lon="7.49462851"><ele>1361.844971</ele><time>2008-09-08T13:33:08Z</time></trkpt>
<trkpt lat="46.10795542" lon="7.49471552"><ele>1357.519043</ele><time>2008-09-08T13:33:30Z</time></trkpt>
<trkpt lat="46.10775601" lon="7.49487871"><ele>1359.44165</ele><time>2008-09-08T13:33:37Z</time></trkpt>
<trkpt lat="46.10753825" lon="7.49505700"><ele>1360.402832</ele><time>2008-09-08T13:33:43Z</time></trkpt>
<trkpt lat="46.10716634" lon="7.49527635"><ele>1362.325439</ele><time>2008-09-08T13:33:52Z</time></trkpt>
<trkpt lat="46.10712452" lon="7.49530661"><ele>1361.844971</ele><time>2008-09-08T13:33:53Z</time></trkpt>
<trkpt lat="46.10675060" lon="7.49561364"><ele>1363.286865</ele><time>2008-09-08T13:34:02Z</time></trkpt>
<trkpt lat="46.10662345" lon="7.49573191"><ele>1363.767334</ele><time>2008-09-08T13:34:05Z</time></trkpt>
<trkpt lat="46.10626185" lon="7.49609048"><ele>1365.209473</ele><time>2008-09-08T13:34:14Z</time></trkpt>
<trkpt lat="46.10595214" lon="7.49638863"><ele>1366.651367</ele><time>2008-09-08T13:34:22Z</time></trkpt>
<trkpt lat="46.10560404" lon="7.49680035"><ele>1368.093262</ele><time>2008-09-08T13:34:31Z</time></trkpt>
<trkpt lat="46.10549608" lon="7.49695675"><ele>1368.093262</ele><time>2008-09-08T13:34:34Z</time></trkpt>
<trkpt lat="46.10532450" lon="7.49709304"><ele>1368.093262</ele><time>2008-09-08T13:34:38Z</time></trkpt>
<trkpt lat="46.10488177" lon="7.49737820"><ele>1369.5354</ele><time>2008-09-08T13:34:49Z</time></trkpt>
<trkpt lat="46.10470014" lon="7.49752061"><ele>1369.5354</ele><time>2008-09-08T13:34:54Z</time></trkpt>
<trkpt lat="46.10451624" lon="7.49771968"><ele>1371.457764</ele><time>2008-09-08T13:35:23Z</time></trkpt>
<trkpt lat="46.10444617" lon="7.49779989"><ele>1371.938477</ele><time>2008-09-08T13:35:31Z</time></trkpt>
<trkpt lat="46.10428582" lon="7.49804271"><ele>1371.938477</ele><time>2008-09-08T13:35:39Z</time></trkpt>
<trkpt lat="46.10407258" lon="7.49823181"><ele>1372.419434</ele><time>2008-09-08T13:35:48Z</time></trkpt>
<trkpt lat="46.10383127" lon="7.49835921"><ele>1373.861328</ele><time>2008-09-08T13:35:57Z</time></trkpt>
<trkpt lat="46.10365148" lon="7.49849006"><ele>1375.783936</ele><time>2008-09-08T13:36:05Z</time></trkpt>
<trkpt lat="46.10342533" lon="7.49854781"><ele>1377.706543</ele><time>2008-09-08T13:36:13Z</time></trkpt>
<trkpt lat="46.10343522" lon="7.49851411"><ele>1387.800293</ele><time>2008-09-08T13:36:30Z</time></trkpt>
<trkpt lat="46.10340823" lon="7.49845485"><ele>1366.170654</ele><time>2008-09-08T13:38:04Z</time></trkpt>
<trkpt lat="46.10332953" lon="7.49849307"><ele>1366.170654</ele><time>2008-09-08T13:38:06Z</time></trkpt>
<trkpt lat="46.10294212" lon="7.49882382"><ele>1363.286865</ele><time>2008-09-08T13:38:15Z</time></trkpt>
<trkpt lat="46.10282695" lon="7.49895919"><ele>1362.806152</ele><time>2008-09-08T13:38:18Z</time></trkpt>
<trkpt lat="46.10182674" lon="7.49985555"><ele>1373.861328</ele><time>2008-09-08T13:39:40Z</time></trkpt>
<trkpt lat="46.10108335" lon="7.50065804"><ele>1376.264648</ele><time>2008-09-08T13:40:11Z</time></trkpt>
<trkpt lat="46.10078755" lon="7.50089088"><ele>1378.187256</ele><time>2008-09-08T13:40:21Z</time></trkpt>
<trkpt lat="46.10028287" lon="7.50127285"><ele>1376.264648</ele><time>2008-09-08T13:40:33Z</time></trkpt>
<trkpt lat="46.09977786" lon="7.50168448"><ele>1374.822754</ele><time>2008-09-08T13:40:45Z</time></trkpt>
<trkpt lat="46.09958709" lon="7.50196796"><ele>1372.900146</ele><time>2008-09-08T13:40:50Z</time></trkpt>
<trkpt lat="46.09915693" lon="7.50232637"><ele>1372.900146</ele><time>2008-09-08T13:40:59Z</time></trkpt>
<trkpt lat="46.09874907" lon="7.50253935"><ele>1374.822754</ele><time>2008-09-08T13:41:07Z</time></trkpt>
<trkpt lat="46.09861840" lon="7.50264505"><ele>1374.342041</ele><time>2008-09-08T13:41:10Z</time></trkpt>
<trkpt lat="46.09848001" lon="7.50273289"><ele>1374.342041</ele><time>2008-09-08T13:41:13Z</time></trkpt>
<trkpt lat="46.09824146" lon="7.50301184"><ele>1374.822754</ele><time>2008-09-08T13:41:19Z</time></trkpt>
<trkpt lat="46.09762564" lon="7.50398532"><ele>1375.783936</ele><time>2008-09-08T13:42:12Z</time></trkpt>
<trkpt lat="46.09728685" lon="7.50412663"><ele>1379.148438</ele><time>2008-09-08T13:42:19Z</time></trkpt>
<trkpt lat="46.09688736" lon="7.50419394"><ele>1380.109863</ele><time>2008-09-08T13:42:28Z</time></trkpt>
<trkpt lat="46.09677890" lon="7.50422596"><ele>1380.109863</ele><time>2008-09-08T13:42:33Z</time></trkpt>
<trkpt lat="46.09671160" lon="7.50425940"><ele>1379.62915</ele><time>2008-09-08T13:42:35Z</time></trkpt>
<trkpt lat="46.09654882" lon="7.50438832"><ele>1380.590576</ele><time>2008-09-08T13:42:39Z</time></trkpt>
<trkpt lat="46.09606728" lon="7.50491546"><ele>1384.435791</ele><time>2008-09-08T13:42:51Z</time></trkpt>
<trkpt lat="46.09594951" lon="7.50503909"><ele>1384.916504</ele><time>2008-09-08T13:42:54Z</time></trkpt>
<trkpt lat="46.09577995" lon="7.50513372"><ele>1385.396973</ele><time>2008-09-08T13:42:58Z</time></trkpt>
<trkpt lat="46.09505441" lon="7.50539783"><ele>1390.684326</ele><time>2008-09-08T13:43:36Z</time></trkpt>
<trkpt lat="46.09473238" lon="7.50551736"><ele>1391.165039</ele><time>2008-09-08T13:43:44Z</time></trkpt>
<trkpt lat="46.09463934" lon="7.50554267"><ele>1392.126465</ele><time>2008-09-08T13:43:46Z</time></trkpt>
<trkpt lat="46.09403199" lon="7.50551317"><ele>1392.607178</ele><time>2008-09-08T13:43:58Z</time></trkpt>
<trkpt lat="46.09379629" lon="7.50545944"><ele>1392.607178</ele><time>2008-09-08T13:44:03Z</time></trkpt>
<trkpt lat="46.09331902" lon="7.50532147"><ele>1397.894287</ele><time>2008-09-08T13:44:13Z</time></trkpt>
<trkpt lat="46.09294997" lon="7.50534771"><ele>1400.297607</ele><time>2008-09-08T13:44:21Z</time></trkpt>
<trkpt lat="46.09253439" lon="7.50545324"><ele>1399.336182</ele><time>2008-09-08T13:44:30Z</time></trkpt>
<trkpt lat="46.09217422" lon="7.50540228"><ele>1400.297607</ele><time>2008-09-08T13:44:38Z</time></trkpt>
<trkpt lat="46.09171514" lon="7.50529314"><ele>1397.894287</ele><time>2008-09-08T13:44:49Z</time></trkpt>
<trkpt lat="46.09156184" lon="7.50532634"><ele>1397.894287</ele><time>2008-09-08T13:44:54Z</time></trkpt>
<trkpt lat="46.09153829" lon="7.50556891"><ele>1414.236572</ele><time>2008-09-08T13:45:53Z</time></trkpt>
<trkpt lat="46.09105792" lon="7.50578851"><ele>1403.181396</ele><time>2008-09-08T13:46:09Z</time></trkpt>
<trkpt lat="46.09060454" lon="7.50595288"><ele>1399.336182</ele><time>2008-09-08T13:46:21Z</time></trkpt>
<trkpt lat="46.09048158" lon="7.50603134"><ele>1398.855469</ele><time>2008-09-08T13:46:25Z</time></trkpt>
<trkpt lat="46.09045132" lon="7.50698185"><ele>1404.623535</ele><time>2008-09-08T13:46:43Z</time></trkpt>
<trkpt lat="46.09043774" lon="7.50706910"><ele>1406.546143</ele><time>2008-09-08T13:46:45Z</time></trkpt>
<trkpt lat="46.09026080" lon="7.50719609"><ele>1408.46875</ele><time>2008-09-08T13:46:51Z</time></trkpt>
<trkpt lat="46.09024077" lon="7.50723884"><ele>1408.949463</ele><time>2008-09-08T13:46:52Z</time></trkpt>
<trkpt lat="46.09026918" lon="7.50740740"><ele>1409.430176</ele><time>2008-09-08T13:46:56Z</time></trkpt>
<trkpt lat="46.09035987" lon="7.50746364"><ele>1410.87207</ele><time>2008-09-08T13:46:59Z</time></trkpt>
<trkpt lat="46.09041536" lon="7.50750488"><ele>1411.352783</ele><time>2008-09-08T13:47:01Z</time></trkpt>
<trkpt lat="46.09048803" lon="7.50788282"><ele>1411.352783</ele><time>2008-09-08T13:47:08Z</time></trkpt>
<trkpt lat="46.09056129" lon="7.50834483"><ele>1412.313965</ele><time>2008-09-08T13:47:16Z</time></trkpt>
<trkpt lat="46.09056439" lon="7.50847097"><ele>1413.755859</ele><time>2008-09-08T13:47:20Z</time></trkpt>
<trkpt lat="46.09046917" lon="7.50855253"><ele>1413.755859</ele><time>2008-09-08T13:47:24Z</time></trkpt>
<trkpt lat="46.09001580" lon="7.50872101"><ele>1417.120605</ele><time>2008-09-08T13:47:34Z</time></trkpt>
<trkpt lat="46.08964372" lon="7.50883760"><ele>1418.5625</ele><time>2008-09-08T13:47:42Z</time></trkpt>
<trkpt lat="46.08951691" lon="7.50888605"><ele>1418.5625</ele><time>2008-09-08T13:47:47Z</time></trkpt>
<trkpt lat="46.08951112" lon="7.50889141"><ele>1419.523926</ele><time>2008-09-08T13:47:53Z</time></trkpt>
<trkpt lat="46.08998143" lon="7.50936449"><ele>1418.081787</ele><time>2008-09-08T13:48:14Z</time></trkpt>
<trkpt lat="46.09039491" lon="7.50962139"><ele>1419.043213</ele><time>2008-09-08T13:48:23Z</time></trkpt>
<trkpt lat="46.09064452" lon="7.50976698"><ele>1421.927246</ele><time>2008-09-08T13:48:30Z</time></trkpt>
<trkpt lat="46.09090118" lon="7.50994250"><ele>1425.291748</ele><time>2008-09-08T13:48:40Z</time></trkpt>
<trkpt lat="46.09108617" lon="7.51023260"><ele>1428.656494</ele><time>2008-09-08T13:48:50Z</time></trkpt>
<trkpt lat="46.09120301" lon="7.51030058"><ele>1430.579102</ele><time>2008-09-08T13:48:56Z</time></trkpt>
<trkpt lat="46.09134709" lon="7.51027266"><ele>1431.059814</ele><time>2008-09-08T13:49:05Z</time></trkpt>
<trkpt lat="46.09151180" lon="7.51022908"><ele>1432.020996</ele><time>2008-09-08T13:49:14Z</time></trkpt>
<trkpt lat="46.09159386" lon="7.51023813"><ele>1432.501709</ele><time>2008-09-08T13:49:18Z</time></trkpt>
<trkpt lat="46.09163552" lon="7.51014593"><ele>1432.982178</ele><time>2008-09-08T13:49:22Z</time></trkpt>
<trkpt lat="46.09165228" lon="7.51008466"><ele>1433.943604</ele><time>2008-09-08T13:49:24Z</time></trkpt>
<trkpt lat="46.09176720" lon="7.51005080"><ele>1435.385498</ele><time>2008-09-08T13:49:30Z</time></trkpt>
<trkpt lat="46.09198638" lon="7.51009782"><ele>1439.230957</ele><time>2008-09-08T13:49:41Z</time></trkpt>
<trkpt lat="46.09214874" lon="7.51009354"><ele>1442.595703</ele><time>2008-09-08T13:49:50Z</time></trkpt>
<trkpt lat="46.09240045" lon="7.51010452"><ele>1444.998779</ele><time>2008-09-08T13:50:04Z</time></trkpt>
<trkpt lat="46.09260463" lon="7.51014794"><ele>1449.80542</ele><time>2008-09-08T13:50:15Z</time></trkpt>
<trkpt lat="46.09284058" lon="7.51024702"><ele>1450.286133</ele><time>2008-09-08T13:50:28Z</time></trkpt>
<trkpt lat="46.09307662" lon="7.51020385"><ele>1450.766602</ele><time>2008-09-08T13:50:40Z</time></trkpt>
<trkpt lat="46.09330343" lon="7.51005658"><ele>1452.20874</ele><time>2008-09-08T13:50:52Z</time></trkpt>
<trkpt lat="46.09348549" lon="7.50988659"><ele>1453.650879</ele><time>2008-09-08T13:51:03Z</time></trkpt>
<trkpt lat="46.09366528" lon="7.50968006"><ele>1457.015381</ele><time>2008-09-08T13:51:14Z</time></trkpt>
<trkpt lat="46.09381875" lon="7.50945417"><ele>1461.341309</ele><time>2008-09-08T13:51:25Z</time></trkpt>
<trkpt lat="46.09400743" lon="7.50919274"><ele>1465.667236</ele><time>2008-09-08T13:51:37Z</time></trkpt>
<trkpt lat="46.09409384" lon="7.50913398"><ele>1467.109131</ele><time>2008-09-08T13:51:42Z</time></trkpt>
<trkpt lat="46.09421555" lon="7.50927396"><ele>1469.993164</ele><time>2008-09-08T13:51:50Z</time></trkpt>
<trkpt lat="46.09423013" lon="7.50929316"><ele>1469.993164</ele><time>2008-09-08T13:51:51Z</time></trkpt>
<trkpt lat="46.09436257" lon="7.50923985"><ele>1472.877197</ele><time>2008-09-08T13:51:58Z</time></trkpt>
<trkpt lat="46.09437606" lon="7.50921822"><ele>1473.35791</ele><time>2008-09-08T13:51:59Z</time></trkpt>
<trkpt lat="46.09444362" lon="7.50897129"><ele>1474.319092</ele><time>2008-09-08T13:52:09Z</time></trkpt>
<trkpt lat="46.09452501" lon="7.50870374"><ele>1476.241699</ele><time>2008-09-08T13:52:20Z</time></trkpt>
<trkpt lat="46.09463783" lon="7.50859134"><ele>1477.683594</ele><time>2008-09-08T13:52:29Z</time></trkpt>
<trkpt lat="46.09462677" lon="7.50858924"><ele>1476.241699</ele><time>2008-09-08T13:53:13Z</time></trkpt>
<trkpt lat="46.09469709" lon="7.50856938"><ele>1479.125488</ele><time>2008-09-08T13:53:57Z</time></trkpt>
<trkpt lat="46.09486213" lon="7.50855588"><ele>1481.528809</ele><time>2008-09-08T13:54:05Z</time></trkpt>
<trkpt lat="46.09506531" lon="7.50848732"><ele>1484.413086</ele><time>2008-09-08T13:54:15Z</time></trkpt>
<trkpt lat="46.09525457" lon="7.50833527"><ele>1486.335693</ele><time>2008-09-08T13:54:25Z</time></trkpt>
<trkpt lat="46.09540519" lon="7.50809220"><ele>1487.296875</ele><time>2008-09-08T13:54:37Z</time></trkpt>
<trkpt lat="46.09550913" lon="7.50801936"><ele>1488.258301</ele><time>2008-09-08T13:54:45Z</time></trkpt>
<trkpt lat="46.09551525" lon="7.50820678"><ele>1489.700195</ele><time>2008-09-08T13:54:53Z</time></trkpt>
<trkpt lat="46.09541567" lon="7.50840920"><ele>1490.661377</ele><time>2008-09-08T13:55:03Z</time></trkpt>
<trkpt lat="46.09528357" lon="7.50863819"><ele>1492.584229</ele><time>2008-09-08T13:55:15Z</time></trkpt>
<trkpt lat="46.09516606" lon="7.50881815"><ele>1494.506592</ele><time>2008-09-08T13:55:25Z</time></trkpt>
<trkpt lat="46.09503547" lon="7.50899275"><ele>1497.871338</ele><time>2008-09-08T13:55:35Z</time></trkpt>
<trkpt lat="46.09491770" lon="7.50919500"><ele>1500.274902</ele><time>2008-09-08T13:55:46Z</time></trkpt>
<trkpt lat="46.09484654" lon="7.50940757"><ele>1504.600586</ele><time>2008-09-08T13:55:56Z</time></trkpt>
<trkpt lat="46.09491804" lon="7.50960203"><ele>1507.484619</ele><time>2008-09-08T13:56:05Z</time></trkpt>
<trkpt lat="46.09497554" lon="7.50990822"><ele>1510.368408</ele><time>2008-09-08T13:56:18Z</time></trkpt>
<trkpt lat="46.09490085" lon="7.51002163"><ele>1509.887695</ele><time>2008-09-08T13:56:26Z</time></trkpt>
<trkpt lat="46.09487914" lon="7.51004585"><ele>1509.887695</ele><time>2008-09-08T13:56:28Z</time></trkpt>
<trkpt lat="46.09471947" lon="7.51013755"><ele>1513.252441</ele><time>2008-09-08T13:56:38Z</time></trkpt>
<trkpt lat="46.09455066" lon="7.51030678"><ele>1518.059082</ele><time>2008-09-08T13:56:49Z</time></trkpt>
<trkpt lat="46.09450104" lon="7.51056486"><ele>1518.539795</ele><time>2008-09-08T13:57:00Z</time></trkpt>
<trkpt lat="46.09446919" lon="7.51087817"><ele>1521.423584</ele><time>2008-09-08T13:57:12Z</time></trkpt>
<trkpt lat="46.09444370" lon="7.51113349"><ele>1524.307617</ele><time>2008-09-08T13:57:22Z</time></trkpt>
<trkpt lat="46.09440389" lon="7.51145208"><ele>1527.672119</ele><time>2008-09-08T13:57:35Z</time></trkpt>
<trkpt lat="46.09434295" lon="7.51172156"><ele>1529.114014</ele><time>2008-09-08T13:57:47Z</time></trkpt>
<trkpt lat="46.09396342" lon="7.51184788"><ele>1529.114014</ele><time>2008-09-08T13:58:15Z</time></trkpt>
<trkpt lat="46.09369059" lon="7.51177546"><ele>1529.114014</ele><time>2008-09-08T13:58:30Z</time></trkpt>
<trkpt lat="46.09347006" lon="7.51180278"><ele>1533.920898</ele><time>2008-09-08T13:58:42Z</time></trkpt>
<trkpt lat="46.09329647" lon="7.51192683"><ele>1536.804688</ele><time>2008-09-08T13:58:53Z</time></trkpt>
<trkpt lat="46.09276230" lon="7.51224652"><ele>1541.130615</ele><time>2008-09-08T13:59:26Z</time></trkpt>
<trkpt lat="46.09247966" lon="7.51249295"><ele>1545.456543</ele><time>2008-09-08T13:59:43Z</time></trkpt>
<trkpt lat="46.09225100" lon="7.51282437"><ele>1546.417969</ele><time>2008-09-08T14:00:01Z</time></trkpt>
<trkpt lat="46.09194154" lon="7.51285898"><ele>1551.705322</ele><time>2008-09-08T14:00:19Z</time></trkpt>
<trkpt lat="46.09103252" lon="7.51293752"><ele>1553.147217</ele><time>2008-09-08T14:01:43Z</time></trkpt>
<trkpt lat="46.09060337" lon="7.51292587"><ele>1553.147217</ele><time>2008-09-08T14:02:02Z</time></trkpt>
<trkpt lat="46.09023004" lon="7.51295286"><ele>1553.147217</ele><time>2008-09-08T14:02:18Z</time></trkpt>
<trkpt lat="46.09001622" lon="7.51306216"><ele>1553.147217</ele><time>2008-09-08T14:02:47Z</time></trkpt>
<trkpt lat="46.09021671" lon="7.51316870"><ele>1553.147217</ele><time>2008-09-08T14:03:02Z</time></trkpt>
<trkpt lat="46.09034806" lon="7.51325713"><ele>1553.147217</ele><time>2008-09-08T14:03:17Z</time></trkpt>
<trkpt lat="46.09038536" lon="7.51329183"><ele>1553.147217</ele><time>2008-09-08T14:03:25Z</time></trkpt>
<trkpt lat="46.09045945" lon="7.51332619"><ele>1553.147217</ele><time>2008-09-08T14:03:35Z</time></trkpt>
<trkpt lat="46.09051921" lon="7.51330733"><ele>1553.147217</ele><time>2008-09-08T14:03:46Z</time></trkpt>
<trkpt lat="46.09065332" lon="7.51329065"><ele>1553.147217</ele><time>2008-09-08T14:03:50Z</time></trkpt>
<trkpt lat="46.09071904" lon="7.51329409"><ele>1553.147217</ele><time>2008-09-08T14:03:54Z</time></trkpt>
<trkpt lat="46.09085826" lon="7.51334170"><ele>1553.147217</ele><time>2008-09-08T14:04:02Z</time></trkpt>
<trkpt lat="46.09114945" lon="7.51342979"><ele>1553.147217</ele><time>2008-09-08T14:04:17Z</time></trkpt>
<trkpt lat="46.09158380" lon="7.51352392"><ele>1553.147217</ele><time>2008-09-08T14:04:32Z</time></trkpt>
<trkpt lat="46.09196207" lon="7.51364437"><ele>1560.837646</ele><time>2008-09-08T14:04:50Z</time></trkpt>
<trkpt lat="46.09227581" lon="7.51373070"><ele>1567.566895</ele><time>2008-09-08T14:05:09Z</time></trkpt>
<trkpt lat="46.09255367" lon="7.51371838"><ele>1578.141357</ele><time>2008-09-08T14:05:25Z</time></trkpt>
<trkpt lat="46.09263070" lon="7.51373908"><ele>1582.467529</ele><time>2008-09-08T14:05:30Z</time></trkpt>
<trkpt lat="46.09278040" lon="7.51371478"><ele>1585.351318</ele><time>2008-09-08T14:05:40Z</time></trkpt>
<trkpt lat="46.09294611" lon="7.51363808"><ele>1590.157959</ele><time>2008-09-08T14:05:51Z</time></trkpt>
<trkpt lat="46.09304787" lon="7.51355125"><ele>1594.003174</ele><time>2008-09-08T14:05:59Z</time></trkpt>
<trkpt lat="46.09317083" lon="7.51343834"><ele>1597.848633</ele><time>2008-09-08T14:06:08Z</time></trkpt>
<trkpt lat="46.09332883" lon="7.51341554"><ele>1603.135742</ele><time>2008-09-08T14:06:18Z</time></trkpt>
<trkpt lat="46.09353460" lon="7.51347229"><ele>1608.422852</ele><time>2008-09-08T14:06:32Z</time></trkpt>
<trkpt lat="46.09369453" lon="7.51352241"><ele>1611.787598</ele><time>2008-09-08T14:06:43Z</time></trkpt>
<trkpt lat="46.09381883" lon="7.51356700"><ele>1616.113525</ele><time>2008-09-08T14:06:53Z</time></trkpt>
<trkpt lat="46.09398480" lon="7.51358612"><ele>1619.478271</ele><time>2008-09-08T14:07:05Z</time></trkpt>
<trkpt lat="46.09409250" lon="7.51365258"><ele>1622.362061</ele><time>2008-09-08T14:07:13Z</time></trkpt>
<trkpt lat="46.09419619" lon="7.51385216"><ele>1625.726563</ele><time>2008-09-08T14:07:24Z</time></trkpt>
<trkpt lat="46.09431219" lon="7.51405056"><ele>1626.207275</ele><time>2008-09-08T14:07:35Z</time></trkpt>
<trkpt lat="46.09435142" lon="7.51411099"><ele>1627.168701</ele><time>2008-09-08T14:07:42Z</time></trkpt>
<trkpt lat="46.09436290" lon="7.51412599"><ele>1630.052734</ele><time>2008-09-08T14:07:52Z</time></trkpt>
<trkpt lat="46.09436223" lon="7.51413580"><ele>1631.01416</ele><time>2008-09-08T14:08:39Z</time></trkpt>
<trkpt lat="46.09436978" lon="7.51415097"><ele>1628.61084</ele><time>2008-09-08T14:09:44Z</time></trkpt>
<trkpt lat="46.09443038" lon="7.51425038"><ele>1627.168701</ele><time>2008-09-08T14:09:47Z</time></trkpt>
<trkpt lat="46.09460858" lon="7.51430763"><ele>1626.207275</ele><time>2008-09-08T14:09:51Z</time></trkpt>
<trkpt lat="46.09496162" lon="7.51437150"><ele>1626.207275</ele><time>2008-09-08T14:09:59Z</time></trkpt>
<trkpt lat="46.09526086" lon="7.51435247"><ele>1625.726563</ele><time>2008-09-08T14:10:07Z</time></trkpt>
<trkpt lat="46.09558951" lon="7.51420587"><ele>1622.362061</ele><time>2008-09-08T14:10:13Z</time></trkpt>
<trkpt lat="46.09584793" lon="7.51399825"><ele>1621.400635</ele><time>2008-09-08T14:10:20Z</time></trkpt>
<trkpt lat="46.09598941" lon="7.51397688"><ele>1624.284668</ele><time>2008-09-08T14:10:53Z</time></trkpt>
<trkpt lat="46.09605907" lon="7.51400990"><ele>1624.284668</ele><time>2008-09-08T14:11:02Z</time></trkpt>
<trkpt lat="46.09628177" lon="7.51414762"><ele>1623.323486</ele><time>2008-09-08T14:11:12Z</time></trkpt>
<trkpt lat="46.09646844" lon="7.51427351"><ele>1624.765381</ele><time>2008-09-08T14:11:21Z</time></trkpt>
<trkpt lat="46.09667128" lon="7.51430570"><ele>1625.24585</ele><time>2008-09-08T14:11:31Z</time></trkpt>
<trkpt lat="46.09689273" lon="7.51423236"><ele>1625.726563</ele><time>2008-09-08T14:11:42Z</time></trkpt>
<trkpt lat="46.09710747" lon="7.51421819"><ele>1629.572021</ele><time>2008-09-08T14:11:53Z</time></trkpt>
<trkpt lat="46.09728349" lon="7.51413052"><ele>1631.975342</ele><time>2008-09-08T14:12:03Z</time></trkpt>
<trkpt lat="46.09745013" lon="7.51396607"><ele>1634.859375</ele><time>2008-09-08T14:12:14Z</time></trkpt>
<trkpt lat="46.09758885" lon="7.51379943"><ele>1636.781738</ele><time>2008-09-08T14:12:23Z</time></trkpt>
<trkpt lat="46.09774601" lon="7.51349509"><ele>1639.185059</ele><time>2008-09-08T14:12:36Z</time></trkpt>
<trkpt lat="46.09788280" lon="7.51326375"><ele>1639.185059</ele><time>2008-09-08T14:12:45Z</time></trkpt>
<trkpt lat="46.09804851" lon="7.51308898"><ele>1638.70459</ele><time>2008-09-08T14:12:54Z</time></trkpt>
<trkpt lat="46.09816032" lon="7.51300567"><ele>1640.146484</ele><time>2008-09-08T14:13:02Z</time></trkpt>
<trkpt lat="46.09840893" lon="7.51296971"><ele>1643.510986</ele><time>2008-09-08T14:13:15Z</time></trkpt>
<trkpt lat="46.09864974" lon="7.51295823"><ele>1646.395264</ele><time>2008-09-08T14:13:27Z</time></trkpt>
<trkpt lat="46.09866961" lon="7.51295764"><ele>1645.914551</ele><time>2008-09-08T14:13:28Z</time></trkpt>
<trkpt lat="46.09869048" lon="7.51312561"><ele>1645.914551</ele><time>2008-09-08T14:13:35Z</time></trkpt>
<trkpt lat="46.09870104" lon="7.51345100"><ele>1649.279053</ele><time>2008-09-08T14:13:48Z</time></trkpt>
<trkpt lat="46.09867992" lon="7.51352577"><ele>1651.20166</ele><time>2008-09-08T14:13:51Z</time></trkpt>
<trkpt lat="46.09857657" lon="7.51368904"><ele>1654.085693</ele><time>2008-09-08T14:14:00Z</time></trkpt>
<trkpt lat="46.09854246" lon="7.51386674"><ele>1656.008057</ele><time>2008-09-08T14:14:07Z</time></trkpt>
<trkpt lat="46.09846828" lon="7.51415667"><ele>1659.853271</ele><time>2008-09-08T14:14:19Z</time></trkpt>
<trkpt lat="46.09847951" lon="7.51424787"><ele>1662.256836</ele><time>2008-09-08T14:14:23Z</time></trkpt>
<trkpt lat="46.09858026" lon="7.51422222"><ele>1665.621582</ele><time>2008-09-08T14:14:30Z</time></trkpt>
<trkpt lat="46.09870926" lon="7.51410814"><ele>1667.543945</ele><time>2008-09-08T14:14:39Z</time></trkpt>
<trkpt lat="46.09869375" lon="7.51445624"><ele>1668.024658</ele><time>2008-09-08T14:14:54Z</time></trkpt>
<trkpt lat="46.09867330" lon="7.51461784"><ele>1669.947266</ele><time>2008-09-08T14:15:00Z</time></trkpt>
<trkpt lat="46.09860809" lon="7.51486980"><ele>1671.38916</ele><time>2008-09-08T14:15:11Z</time></trkpt>
<trkpt lat="46.09860096" lon="7.51489369"><ele>1671.869873</ele><time>2008-09-08T14:15:18Z</time></trkpt>
<trkpt lat="46.09860172" lon="7.51490434"><ele>1669.466797</ele><time>2008-09-08T14:15:46Z</time></trkpt>
<trkpt lat="46.09860800" lon="7.51491406"><ele>1668.986084</ele><time>2008-09-08T14:16:30Z</time></trkpt>
<trkpt lat="46.09858512" lon="7.51496351"><ele>1674.273193</ele><time>2008-09-08T14:16:53Z</time></trkpt>
<trkpt lat="46.09861957" lon="7.51503300"><ele>1674.753906</ele><time>2008-09-08T14:16:58Z</time></trkpt>
<trkpt lat="46.09864136" lon="7.51502797"><ele>1674.753906</ele><time>2008-09-08T14:17:01Z</time></trkpt>
<trkpt lat="46.09857095" lon="7.51500165"><ele>1673.79248</ele><time>2008-09-08T14:17:05Z</time></trkpt>
<trkpt lat="46.09841153" lon="7.51519661"><ele>1670.908691</ele><time>2008-09-08T14:17:09Z</time></trkpt>
<trkpt lat="46.09831329" lon="7.51535771"><ele>1668.986084</ele><time>2008-09-08T14:17:11Z</time></trkpt>
<trkpt lat="46.09803300" lon="7.51560104"><ele>1667.543945</ele><time>2008-09-08T14:17:15Z</time></trkpt>
<trkpt lat="46.09785531" lon="7.51589550"><ele>1667.063477</ele><time>2008-09-08T14:17:19Z</time></trkpt>
<trkpt lat="46.09780602" lon="7.51597839"><ele>1668.986084</ele><time>2008-09-08T14:17:23Z</time></trkpt>
<trkpt lat="46.09775682" lon="7.51614033"><ele>1672.350586</ele><time>2008-09-08T14:17:31Z</time></trkpt>
<trkpt lat="46.09770007" lon="7.51636740"><ele>1675.234375</ele><time>2008-09-08T14:17:42Z</time></trkpt>
<trkpt lat="46.09757300" lon="7.51647636"><ele>1677.637939</ele><time>2008-09-08T14:17:50Z</time></trkpt>
<trkpt lat="46.09743403" lon="7.51663042"><ele>1680.521973</ele><time>2008-09-08T14:18:00Z</time></trkpt>
<trkpt lat="46.09731526" lon="7.51676135"><ele>1683.886475</ele><time>2008-09-08T14:18:09Z</time></trkpt>
<trkpt lat="46.09715550" lon="7.51694776"><ele>1684.8479</ele><time>2008-09-08T14:18:21Z</time></trkpt>
<trkpt lat="46.09700848" lon="7.51715530"><ele>1686.289795</ele><time>2008-09-08T14:18:33Z</time></trkpt>
<trkpt lat="46.09657497" lon="7.51753299"><ele>1683.886475</ele><time>2008-09-08T14:18:58Z</time></trkpt>
<trkpt lat="46.09587559" lon="7.51806071"><ele>1689.173584</ele><time>2008-09-08T14:19:44Z</time></trkpt>
<trkpt lat="46.09550552" lon="7.51813849"><ele>1695.903076</ele><time>2008-09-08T14:20:11Z</time></trkpt>
<trkpt lat="46.09546915" lon="7.51792626"><ele>1698.306152</ele><time>2008-09-08T14:20:18Z</time></trkpt>
<trkpt lat="46.09513002" lon="7.51781722"><ele>1699.267578</ele><time>2008-09-08T14:20:55Z</time></trkpt>
<trkpt lat="46.09516614" lon="7.51788913"><ele>1708.880859</ele><time>2008-09-08T14:21:04Z</time></trkpt>
<trkpt lat="46.09506506" lon="7.51808234"><ele>1723.781006</ele><time>2008-09-08T14:21:36Z</time></trkpt>
<trkpt lat="46.09503362" lon="7.51807597"><ele>1731.952393</ele><time>2008-09-08T14:21:45Z</time></trkpt>
<trkpt lat="46.09460187" lon="7.51780523"><ele>1746.372314</ele><time>2008-09-08T14:22:45Z</time></trkpt>
<trkpt lat="46.09368288" lon="7.51798133"><ele>1757.42749</ele><time>2008-09-08T14:23:34Z</time></trkpt>
<trkpt lat="46.09354215" lon="7.51816381"><ele>1765.598633</ele><time>2008-09-08T14:23:45Z</time></trkpt>
<trkpt lat="46.09344190" lon="7.51828233"><ele>1768.001709</ele><time>2008-09-08T14:23:55Z</time></trkpt>
<trkpt lat="46.09337937" lon="7.51834234"><ele>1769.924316</ele><time>2008-09-08T14:24:32Z</time></trkpt>
<trkpt lat="46.09327594" lon="7.51854150"><ele>1771.366211</ele><time>2008-09-08T14:24:43Z</time></trkpt>
<trkpt lat="46.09313571" lon="7.51865063"><ele>1771.366211</ele><time>2008-09-08T14:24:53Z</time></trkpt>
<trkpt lat="46.09295592" lon="7.51872347"><ele>1773.769775</ele><time>2008-09-08T14:25:05Z</time></trkpt>
<trkpt lat="46.09279213" lon="7.51884484"><ele>1778.095703</ele><time>2008-09-08T14:25:17Z</time></trkpt>
<trkpt lat="46.09262751" lon="7.51898808"><ele>1783.382813</ele><time>2008-09-08T14:25:29Z</time></trkpt>
<trkpt lat="46.09249651" lon="7.51912354"><ele>1783.863525</ele><time>2008-09-08T14:25:40Z</time></trkpt>
<trkpt lat="46.09235376" lon="7.51926787"><ele>1786.747314</ele><time>2008-09-08T14:25:53Z</time></trkpt>
<trkpt lat="46.09221328" lon="7.51942176"><ele>1787.70874</ele><time>2008-09-08T14:26:05Z</time></trkpt>
<trkpt lat="46.09205503" lon="7.51954925"><ele>1790.112305</ele><time>2008-09-08T14:26:17Z</time></trkpt>
<trkpt lat="46.09111710" lon="7.52027588"><ele>1797.802734</ele><time>2008-09-08T14:27:23Z</time></trkpt>
<trkpt lat="46.09113989" lon="7.52026507"><ele>1798.283203</ele><time>2008-09-08T14:27:45Z</time></trkpt>
<trkpt lat="46.08996651" lon="7.51968043"><ele>1789.631592</ele><time>2008-09-08T14:29:04Z</time></trkpt>
<trkpt lat="46.08978186" lon="7.51969258"><ele>1792.034912</ele><time>2008-09-08T14:29:12Z</time></trkpt>
<trkpt lat="46.08961950" lon="7.51967909"><ele>1792.515625</ele><time>2008-09-08T14:29:20Z</time></trkpt>
<trkpt lat="46.08958052" lon="7.51965704"><ele>1790.592773</ele><time>2008-09-08T14:29:27Z</time></trkpt>
<trkpt lat="46.08869405" lon="7.51965520"><ele>1779.056885</ele><time>2008-09-08T14:30:19Z</time></trkpt>
<trkpt lat="46.08846623" lon="7.51977037"><ele>1777.61499</ele><time>2008-09-08T14:30:24Z</time></trkpt>
<trkpt lat="46.08832274" lon="7.52006021"><ele>1775.21167</ele><time>2008-09-08T14:30:31Z</time></trkpt>
<trkpt lat="46.08803356" lon="7.51971169"><ele>1771.366211</ele><time>2008-09-08T14:30:40Z</time></trkpt>
<trkpt lat="46.08789719" lon="7.51976433"><ele>1767.520996</ele><time>2008-09-08T14:30:45Z</time></trkpt>
<trkpt lat="46.08776777" lon="7.51963332"><ele>1763.195313</ele><time>2008-09-08T14:30:50Z</time></trkpt>
<trkpt lat="46.08774916" lon="7.51958747"><ele>1761.753418</ele><time>2008-09-08T14:30:51Z</time></trkpt>
<trkpt lat="46.08766903" lon="7.51932722"><ele>1755.985107</ele><time>2008-09-08T14:30:57Z</time></trkpt>
<trkpt lat="46.08759410" lon="7.51900275"><ele>1749.736816</ele><time>2008-09-08T14:31:04Z</time></trkpt>
<trkpt lat="46.08755864" lon="7.51876211"><ele>1745.410889</ele><time>2008-09-08T14:31:10Z</time></trkpt>
<trkpt lat="46.08734256" lon="7.51851602"><ele>1737.720215</ele><time>2008-09-08T14:32:03Z</time></trkpt>
<trkpt lat="46.08725388" lon="7.51863269"><ele>1738.200928</ele><time>2008-09-08T14:32:08Z</time></trkpt>
<trkpt lat="46.08701080" lon="7.51918565"><ele>1741.084961</ele><time>2008-09-08T14:32:20Z</time></trkpt>
<trkpt lat="46.08683118" lon="7.51953861"><ele>1740.604248</ele><time>2008-09-08T14:32:28Z</time></trkpt>
<trkpt lat="46.08650051" lon="7.51992443"><ele>1738.681641</ele><time>2008-09-08T14:32:37Z</time></trkpt>
<trkpt lat="46.08626875" lon="7.52017119"><ele>1737.720215</ele><time>2008-09-08T14:32:42Z</time></trkpt>
<trkpt lat="46.08615685" lon="7.52025719"><ele>1737.239502</ele><time>2008-09-08T14:32:44Z</time></trkpt>
<trkpt lat="46.08588335" lon="7.52024772"><ele>1737.720215</ele><time>2008-09-08T14:32:48Z</time></trkpt>
<trkpt lat="46.08551136" lon="7.52014680"><ele>1736.758789</ele><time>2008-09-08T14:32:54Z</time></trkpt>
<trkpt lat="46.08528011" lon="7.52023062"><ele>1735.316895</ele><time>2008-09-08T14:32:58Z</time></trkpt>
<trkpt lat="46.08477451" lon="7.52062993"><ele>1733.875</ele><time>2008-09-08T14:33:07Z</time></trkpt>
<trkpt lat="46.08443244" lon="7.52105515"><ele>1730.510498</ele><time>2008-09-08T14:33:12Z</time></trkpt>
<trkpt lat="46.08420253" lon="7.52134239"><ele>1726.665283</ele><time>2008-09-08T14:33:15Z</time></trkpt>
<trkpt lat="46.08388779" lon="7.52153618"><ele>1723.300537</ele><time>2008-09-08T14:33:19Z</time></trkpt>
<trkpt lat="46.08322905" lon="7.52178479"><ele>1717.052002</ele><time>2008-09-08T14:33:26Z</time></trkpt>
<trkpt lat="46.08266571" lon="7.52162126"><ele>1711.764893</ele><time>2008-09-08T14:33:31Z</time></trkpt>
<trkpt lat="46.08232817" lon="7.52185218"><ele>1708.880859</ele><time>2008-09-08T14:33:35Z</time></trkpt>
<trkpt lat="46.08206782" lon="7.52222819"><ele>1707.438721</ele><time>2008-09-08T14:33:39Z</time></trkpt>
<trkpt lat="46.08183422" lon="7.52246037"><ele>1705.996582</ele><time>2008-09-08T14:33:42Z</time></trkpt>
<trkpt lat="46.08116266" lon="7.52290914"><ele>1702.63208</ele><time>2008-09-08T14:33:50Z</time></trkpt>
<trkpt lat="46.08078355" lon="7.52339822"><ele>1701.190186</ele><time>2008-09-08T14:33:56Z</time></trkpt>
<trkpt lat="46.08065656" lon="7.52368212"><ele>1701.190186</ele><time>2008-09-08T14:33:59Z</time></trkpt>
<trkpt lat="46.08039413" lon="7.52403047"><ele>1700.229004</ele><time>2008-09-08T14:34:04Z</time></trkpt>
<trkpt lat="46.08015181" lon="7.52445283"><ele>1701.190186</ele><time>2008-09-08T14:34:10Z</time></trkpt>
<trkpt lat="46.07997428" lon="7.52494510"><ele>1701.670898</ele><time>2008-09-08T14:34:16Z</time></trkpt>
<trkpt lat="46.07968485" lon="7.52552186"><ele>1702.63208</ele><time>2008-09-08T14:34:24Z</time></trkpt>
<trkpt lat="46.07951813" lon="7.52577701"><ele>1701.670898</ele><time>2008-09-08T14:34:28Z</time></trkpt>
<trkpt lat="46.07924874" lon="7.52605529"><ele>1701.670898</ele><time>2008-09-08T14:34:34Z</time></trkpt>
<trkpt lat="46.07902679" lon="7.52620440"><ele>1701.670898</ele><time>2008-09-08T14:34:39Z</time></trkpt>
<trkpt lat="46.07888161" lon="7.52623114"><ele>1702.151367</ele><time>2008-09-08T14:34:42Z</time></trkpt>
<trkpt lat="46.07879251" lon="7.52623416"><ele>1703.112793</ele><time>2008-09-08T14:34:44Z</time></trkpt>
<trkpt lat="46.07863443" lon="7.52641294"><ele>1704.074219</ele><time>2008-09-08T14:34:49Z</time></trkpt>
<trkpt lat="46.07787143" lon="7.52764005"><ele>1704.074219</ele><time>2008-09-08T14:35:50Z</time></trkpt>
<trkpt lat="46.07774503" lon="7.52780995"><ele>1704.554688</ele><time>2008-09-08T14:35:54Z</time></trkpt>
<trkpt lat="46.07766020" lon="7.52799268"><ele>1704.554688</ele><time>2008-09-08T14:35:57Z</time></trkpt>
<trkpt lat="46.07750162" lon="7.52815017"><ele>1705.516113</ele><time>2008-09-08T14:36:15Z</time></trkpt>
<trkpt lat="46.07738787" lon="7.52832175"><ele>1705.996582</ele><time>2008-09-08T14:36:21Z</time></trkpt>
<trkpt lat="46.07730908" lon="7.52846014"><ele>1705.996582</ele><time>2008-09-08T14:36:24Z</time></trkpt>
<trkpt lat="46.07715880" lon="7.52864278"><ele>1705.996582</ele><time>2008-09-08T14:36:28Z</time></trkpt>
<trkpt lat="46.07702812" lon="7.52907881"><ele>1704.554688</ele><time>2008-09-08T14:36:32Z</time></trkpt>
<trkpt lat="46.07684364" lon="7.52959220"><ele>1700.229004</ele><time>2008-09-08T14:36:36Z</time></trkpt>
<trkpt lat="46.07657793" lon="7.53015714"><ele>1694.94165</ele><time>2008-09-08T14:36:41Z</time></trkpt>
<trkpt lat="46.07617568" lon="7.53050993"><ele>1688.693115</ele><time>2008-09-08T14:36:46Z</time></trkpt>
<trkpt lat="46.07578182" lon="7.53102198"><ele>1684.367188</ele><time>2008-09-08T14:36:51Z</time></trkpt>
<trkpt lat="46.07538242" lon="7.53152490"><ele>1682.44458</ele><time>2008-09-08T14:36:57Z</time></trkpt>
<trkpt lat="46.07532911" lon="7.53161266"><ele>1682.44458</ele><time>2008-09-08T14:36:58Z</time></trkpt>
<trkpt lat="46.07511445" lon="7.53228480"><ele>1682.44458</ele><time>2008-09-08T14:37:06Z</time></trkpt>
<trkpt lat="46.07499928" lon="7.53285536"><ele>1682.44458</ele><time>2008-09-08T14:37:15Z</time></trkpt>
<trkpt lat="46.07498285" lon="7.53291596"><ele>1682.44458</ele><time>2008-09-08T14:37:16Z</time></trkpt>
<trkpt lat="46.07472871" lon="7.53321167"><ele>1683.886475</ele><time>2008-09-08T14:37:23Z</time></trkpt>
<trkpt lat="46.07466434" lon="7.53329482"><ele>1684.367188</ele><time>2008-09-08T14:37:25Z</time></trkpt>
<trkpt lat="46.07451967" lon="7.53374141"><ele>1686.289795</ele><time>2008-09-08T14:37:33Z</time></trkpt>
<trkpt lat="46.07440081" lon="7.53413603"><ele>1689.654297</ele><time>2008-09-08T14:37:42Z</time></trkpt>
<trkpt lat="46.07422764" lon="7.53434557"><ele>1692.057861</ele><time>2008-09-08T14:37:52Z</time></trkpt>
<trkpt lat="46.07400686" lon="7.53447675"><ele>1695.422363</ele><time>2008-09-08T14:38:03Z</time></trkpt>
<trkpt lat="46.07391123" lon="7.53467616"><ele>1698.306152</ele><time>2008-09-08T14:38:10Z</time></trkpt>
<trkpt lat="46.07381869" lon="7.53514680"><ele>1701.190186</ele><time>2008-09-08T14:38:22Z</time></trkpt>
<trkpt lat="46.07349548" lon="7.53601349"><ele>1700.709473</ele><time>2008-09-08T14:38:40Z</time></trkpt>
<trkpt lat="46.07311218" lon="7.53704564"><ele>1702.151367</ele><time>2008-09-08T14:39:00Z</time></trkpt>
<trkpt lat="46.07300908" lon="7.53759415"><ele>1703.112793</ele><time>2008-09-08T14:39:10Z</time></trkpt>
<trkpt lat="46.07291479" lon="7.53769071"><ele>1703.112793</ele><time>2008-09-08T14:39:13Z</time></trkpt>
<trkpt lat="46.07219595" lon="7.53778945"><ele>1705.516113</ele><time>2008-09-08T14:39:31Z</time></trkpt>
<trkpt lat="46.07186604" lon="7.53782658"><ele>1705.0354</ele><time>2008-09-08T14:39:44Z</time></trkpt>
<trkpt lat="46.07175792" lon="7.53794418"><ele>1707.438721</ele><time>2008-09-08T14:39:50Z</time></trkpt>
<trkpt lat="46.07166664" lon="7.53825674"><ele>1711.28418</ele><time>2008-09-08T14:40:00Z</time></trkpt>
<trkpt lat="46.07148232" lon="7.53849286"><ele>1710.803467</ele><time>2008-09-08T14:40:13Z</time></trkpt>
<trkpt lat="46.07141049" lon="7.53854600"><ele>1710.803467</ele><time>2008-09-08T14:40:17Z</time></trkpt>
<trkpt lat="46.07135131" lon="7.53875814"><ele>1715.610107</ele><time>2008-09-08T14:40:23Z</time></trkpt>
<trkpt lat="46.07121494" lon="7.53904405"><ele>1716.090576</ele><time>2008-09-08T14:40:33Z</time></trkpt>
<trkpt lat="46.07009863" lon="7.53890877"><ele>1731.47168</ele><time>2008-09-08T14:41:24Z</time></trkpt>
<trkpt lat="46.06997031" lon="7.53894556"><ele>1732.433105</ele><time>2008-09-08T14:41:31Z</time></trkpt>
<trkpt lat="46.06990971" lon="7.53898756"><ele>1732.913574</ele><time>2008-09-08T14:41:34Z</time></trkpt>
<trkpt lat="46.06969203" lon="7.53929811"><ele>1735.797607</ele><time>2008-09-08T14:41:46Z</time></trkpt>
<trkpt lat="46.06950939" lon="7.53941302"><ele>1736.27832</ele><time>2008-09-08T14:41:52Z</time></trkpt>
<trkpt lat="46.06913522" lon="7.53920104"><ele>1738.200928</ele><time>2008-09-08T14:42:02Z</time></trkpt>
<trkpt lat="46.06910018" lon="7.53918026"><ele>1737.720215</ele><time>2008-09-08T14:42:03Z</time></trkpt>
<trkpt lat="46.06896842" lon="7.53923910"><ele>1737.720215</ele><time>2008-09-08T14:42:07Z</time></trkpt>
<trkpt lat="46.06874387" lon="7.53941839"><ele>1737.720215</ele><time>2008-09-08T14:42:17Z</time></trkpt>
<trkpt lat="46.06850381" lon="7.53954579"><ele>1738.681641</ele><time>2008-09-08T14:42:27Z</time></trkpt>
<trkpt lat="46.06833961" lon="7.53965911"><ele>1742.5271</ele><time>2008-09-08T14:42:34Z</time></trkpt>
<trkpt lat="46.06817306" lon="7.53999665"><ele>1745.410889</ele><time>2008-09-08T14:42:43Z</time></trkpt>
<trkpt lat="46.06808136" lon="7.54035666"><ele>1746.372314</ele><time>2008-09-08T14:42:51Z</time></trkpt>
<trkpt lat="46.06804247" lon="7.54063460"><ele>1748.294678</ele><time>2008-09-08T14:42:59Z</time></trkpt>
<trkpt lat="46.06801456" lon="7.54086971"><ele>1750.217529</ele><time>2008-09-08T14:43:08Z</time></trkpt>
<trkpt lat="46.06800819" lon="7.54123810"><ele>1751.659424</ele><time>2008-09-08T14:43:18Z</time></trkpt>
<trkpt lat="46.06803275" lon="7.54165216"><ele>1752.620605</ele><time>2008-09-08T14:43:25Z</time></trkpt>
<trkpt lat="46.06792009" lon="7.54196841"><ele>1754.062744</ele><time>2008-09-08T14:43:31Z</time></trkpt>
<trkpt lat="46.06789922" lon="7.54202080"><ele>1754.062744</ele><time>2008-09-08T14:43:32Z</time></trkpt>
<trkpt lat="46.06736530" lon="7.54248105"><ele>1756.466064</ele><time>2008-09-08T14:43:47Z</time></trkpt>
<trkpt lat="46.06701284" lon="7.54262631"><ele>1758.869385</ele><time>2008-09-08T14:43:57Z</time></trkpt>
<trkpt lat="46.06691301" lon="7.54280719"><ele>1759.830566</ele><time>2008-09-08T14:44:04Z</time></trkpt>
<trkpt lat="46.06675484" lon="7.54307197"><ele>1762.7146</ele><time>2008-09-08T14:44:14Z</time></trkpt>
<trkpt lat="46.06655007" lon="7.54327985"><ele>1763.675781</ele><time>2008-09-08T14:44:25Z</time></trkpt>
<trkpt lat="46.06635938" lon="7.54341957"><ele>1765.598633</ele><time>2008-09-08T14:44:34Z</time></trkpt>
<trkpt lat="46.06614288" lon="7.54354253"><ele>1769.924316</ele><time>2008-09-08T14:44:43Z</time></trkpt>
<trkpt lat="46.06596745" lon="7.54362158"><ele>1771.846924</ele><time>2008-09-08T14:44:50Z</time></trkpt>
<trkpt lat="46.06568816" lon="7.54371218"><ele>1776.653809</ele><time>2008-09-08T14:45:01Z</time></trkpt>
<trkpt lat="46.06546797" lon="7.54379014"><ele>1778.576416</ele><time>2008-09-08T14:45:10Z</time></trkpt>
<trkpt lat="46.06528650" lon="7.54399708"><ele>1781.940918</ele><time>2008-09-08T14:45:20Z</time></trkpt>
<trkpt lat="46.06517938" lon="7.54420370"><ele>1782.421631</ele><time>2008-09-08T14:45:28Z</time></trkpt>
<trkpt lat="46.06512289" lon="7.54435013"><ele>1784.344238</ele><time>2008-09-08T14:45:36Z</time></trkpt>
<trkpt lat="46.06512020" lon="7.54441517"><ele>1792.515625</ele><time>2008-09-08T14:47:10Z</time></trkpt>
<trkpt lat="46.06504116" lon="7.54466948"><ele>1792.034912</ele><time>2008-09-08T14:47:19Z</time></trkpt>
<trkpt lat="46.06495650" lon="7.54485908"><ele>1792.515625</ele><time>2008-09-08T14:47:26Z</time></trkpt>
<trkpt lat="46.06480571" lon="7.54511012"><ele>1792.515625</ele><time>2008-09-08T14:47:37Z</time></trkpt>
<trkpt lat="46.06478887" lon="7.54511573"><ele>1794.437988</ele><time>2008-09-08T14:47:43Z</time></trkpt>
<trkpt lat="46.06465844" lon="7.54559535"><ele>1797.802734</ele><time>2008-09-08T14:48:20Z</time></trkpt>
<trkpt lat="46.06463774" lon="7.54603866"><ele>1800.206055</ele><time>2008-09-08T14:48:32Z</time></trkpt>
<trkpt lat="46.06454194" lon="7.54630563"><ele>1801.167236</ele><time>2008-09-08T14:48:40Z</time></trkpt>
<trkpt lat="46.06432518" lon="7.54646388"><ele>1802.128418</ele><time>2008-09-08T14:48:49Z</time></trkpt>
<trkpt lat="46.06397565" lon="7.54660671"><ele>1803.089844</ele><time>2008-09-08T14:49:04Z</time></trkpt>
<trkpt lat="46.06378388" lon="7.54664669"><ele>1804.531982</ele><time>2008-09-08T14:49:14Z</time></trkpt>
<trkpt lat="46.06362320" lon="7.54677099"><ele>1809.338623</ele><time>2008-09-08T14:49:23Z</time></trkpt>
<trkpt lat="46.06343812" lon="7.54694433"><ele>1813.664307</ele><time>2008-09-08T14:49:35Z</time></trkpt>
<trkpt lat="46.06327996" lon="7.54707349"><ele>1814.625732</ele><time>2008-09-08T14:49:45Z</time></trkpt>
<trkpt lat="46.06308784" lon="7.54721624"><ele>1817.990234</ele><time>2008-09-08T14:49:56Z</time></trkpt>
<trkpt lat="46.06288022" lon="7.54734415"><ele>1823.277832</ele><time>2008-09-08T14:50:07Z</time></trkpt>
<trkpt lat="46.06267814" lon="7.54750583"><ele>1823.277832</ele><time>2008-09-08T14:50:19Z</time></trkpt>
<trkpt lat="46.06246716" lon="7.54772728"><ele>1824.239014</ele><time>2008-09-08T14:50:32Z</time></trkpt>
<trkpt lat="46.06223658" lon="7.54788335"><ele>1824.719727</ele><time>2008-09-08T14:50:45Z</time></trkpt>
<trkpt lat="46.06203424" lon="7.54784480"><ele>1827.123047</ele><time>2008-09-08T14:50:55Z</time></trkpt>
<trkpt lat="46.06184229" lon="7.54769937"><ele>1830.968262</ele><time>2008-09-08T14:51:06Z</time></trkpt>
<trkpt lat="46.06170299" lon="7.54779350"><ele>1833.852051</ele><time>2008-09-08T14:51:14Z</time></trkpt>
<trkpt lat="46.06168052" lon="7.54803280"><ele>1834.813477</ele><time>2008-09-08T14:51:23Z</time></trkpt>
<trkpt lat="46.06171045" lon="7.54810246"><ele>1835.774658</ele><time>2008-09-08T14:51:26Z</time></trkpt>
<trkpt lat="46.06198403" lon="7.54823447"><ele>1834.332764</ele><time>2008-09-08T14:51:40Z</time></trkpt>
<trkpt lat="46.06204983" lon="7.54825040"><ele>1833.852051</ele><time>2008-09-08T14:51:43Z</time></trkpt>
<trkpt lat="46.06262986" lon="7.54800632"><ele>1835.774658</ele><time>2008-09-08T14:52:05Z</time></trkpt>
<trkpt lat="46.06265517" lon="7.54799391"><ele>1835.774658</ele><time>2008-09-08T14:52:06Z</time></trkpt>
<trkpt lat="46.06337878" lon="7.54801034"><ele>1839.139404</ele><time>2008-09-08T14:52:36Z</time></trkpt>
<trkpt lat="46.06342907" lon="7.54809223"><ele>1842.023438</ele><time>2008-09-08T14:52:41Z</time></trkpt>
<trkpt lat="46.06332723" lon="7.54816054"><ele>1844.907227</ele><time>2008-09-08T14:52:48Z</time></trkpt>
<trkpt lat="46.06310410" lon="7.54826238"><ele>1849.713867</ele><time>2008-09-08T14:53:01Z</time></trkpt>
<trkpt lat="46.06293102" lon="7.54835987"><ele>1851.155762</ele><time>2008-09-08T14:53:12Z</time></trkpt>
<trkpt lat="46.06289648" lon="7.54837856"><ele>1851.636475</ele><time>2008-09-08T14:53:14Z</time></trkpt>
<trkpt lat="46.06282666" lon="7.54840488"><ele>1852.5979</ele><time>2008-09-08T14:53:18Z</time></trkpt>
<trkpt lat="46.06263899" lon="7.54848400"><ele>1855.481934</ele><time>2008-09-08T14:53:29Z</time></trkpt>
<trkpt lat="46.06245300" lon="7.54852172"><ele>1859.807617</ele><time>2008-09-08T14:53:40Z</time></trkpt>
<trkpt lat="46.06221889" lon="7.54856857"><ele>1862.69165</ele><time>2008-09-08T14:53:54Z</time></trkpt>
<trkpt lat="46.06202938" lon="7.54871216"><ele>1866.056152</ele><time>2008-09-08T14:54:06Z</time></trkpt>
<trkpt lat="46.06186316" lon="7.54883931"><ele>1867.498047</ele><time>2008-09-08T14:54:17Z</time></trkpt>
<trkpt lat="46.06167700" lon="7.54897736"><ele>1867.498047</ele><time>2008-09-08T14:54:29Z</time></trkpt>
<trkpt lat="46.06150433" lon="7.54911139"><ele>1867.97876</ele><time>2008-09-08T14:54:40Z</time></trkpt>
<trkpt lat="46.06134097" lon="7.54931079"><ele>1870.382324</ele><time>2008-09-08T14:54:52Z</time></trkpt>
<trkpt lat="46.06125908" lon="7.54955781"><ele>1872.304932</ele><time>2008-09-08T14:55:01Z</time></trkpt>
<trkpt lat="46.06109555" lon="7.54980910"><ele>1871.824219</ele><time>2008-09-08T14:55:12Z</time></trkpt>
<trkpt lat="46.06087829" lon="7.55005678"><ele>1875.188721</ele><time>2008-09-08T14:55:24Z</time></trkpt>
<trkpt lat="46.06058928" lon="7.55025493"><ele>1876.150146</ele><time>2008-09-08T14:55:38Z</time></trkpt>
<trkpt lat="46.06035023" lon="7.55026700"><ele>1878.072754</ele><time>2008-09-08T14:55:48Z</time></trkpt>
<trkpt lat="46.06007430" lon="7.55027790"><ele>1878.553467</ele><time>2008-09-08T14:56:01Z</time></trkpt>
<trkpt lat="46.05986953" lon="7.55046465"><ele>1879.995361</ele><time>2008-09-08T14:56:12Z</time></trkpt>
<trkpt lat="46.05968873" lon="7.55062868"><ele>1879.995361</ele><time>2008-09-08T14:56:22Z</time></trkpt>
<trkpt lat="46.05949938" lon="7.55058576"><ele>1885.282715</ele><time>2008-09-08T14:56:31Z</time></trkpt>
<trkpt lat="46.05938195" lon="7.55042475"><ele>1889.12793</ele><time>2008-09-08T14:56:39Z</time></trkpt>
<trkpt lat="46.05916989" lon="7.54999006"><ele>1893.93457</ele><time>2008-09-08T14:56:57Z</time></trkpt>
<trkpt lat="46.05912052" lon="7.54975168"><ele>1896.818359</ele><time>2008-09-08T14:57:05Z</time></trkpt>
<trkpt lat="46.05895112" lon="7.54954272"><ele>1898.260254</ele><time>2008-09-08T14:57:15Z</time></trkpt>
<trkpt lat="46.05888482" lon="7.54939386"><ele>1899.22168</ele><time>2008-09-08T14:57:23Z</time></trkpt>
<trkpt lat="46.05887451" lon="7.54937802"><ele>1899.22168</ele><time>2008-09-08T14:57:24Z</time></trkpt>
<trkpt lat="46.05877887" lon="7.54923586"><ele>1900.18335</ele><time>2008-09-08T14:57:33Z</time></trkpt>
<trkpt lat="46.05863462" lon="7.54924055"><ele>1900.18335</ele><time>2008-09-08T14:57:41Z</time></trkpt>
<trkpt lat="46.05841644" lon="7.54932077"><ele>1903.547852</ele><time>2008-09-08T14:57:54Z</time></trkpt>
<trkpt lat="46.05826909" lon="7.54938480"><ele>1904.028564</ele><time>2008-09-08T14:58:03Z</time></trkpt>
<trkpt lat="46.05819851" lon="7.54953015"><ele>1903.067139</ele><time>2008-09-08T14:58:11Z</time></trkpt>
<trkpt lat="46.05818208" lon="7.54955035"><ele>1903.547852</ele><time>2008-09-08T14:58:16Z</time></trkpt>
<trkpt lat="46.05836472" lon="7.54915313"><ele>1902.586426</ele><time>2008-09-08T14:59:11Z</time></trkpt>
<trkpt lat="46.05831586" lon="7.54918816"><ele>1903.547852</ele><time>2008-09-08T14:59:15Z</time></trkpt>
<trkpt lat="46.05821201" lon="7.54917450"><ele>1906.431641</ele><time>2008-09-08T14:59:22Z</time></trkpt>
<trkpt lat="46.05805971" lon="7.54926025"><ele>1907.393066</ele><time>2008-09-08T14:59:32Z</time></trkpt>
<trkpt lat="46.05800766" lon="7.54928472"><ele>1909.315674</ele><time>2008-09-08T14:59:35Z</time></trkpt>
<trkpt lat="46.05788754" lon="7.54919990"><ele>1911.718994</ele><time>2008-09-08T14:59:42Z</time></trkpt>
<trkpt lat="46.05769610" lon="7.54909060"><ele>1912.680176</ele><time>2008-09-08T14:59:51Z</time></trkpt>
<trkpt lat="46.05751572" lon="7.54913989"><ele>1912.680176</ele><time>2008-09-08T15:00:01Z</time></trkpt>
<trkpt lat="46.05731741" lon="7.54916897"><ele>1914.602783</ele><time>2008-09-08T15:00:11Z</time></trkpt>
<trkpt lat="46.05715496" lon="7.54914919"><ele>1919.890137</ele><time>2008-09-08T15:00:20Z</time></trkpt>
<trkpt lat="46.05699596" lon="7.54909194"><ele>1921.812744</ele><time>2008-09-08T15:00:29Z</time></trkpt>
<trkpt lat="46.05680200" lon="7.54911851"><ele>1922.293457</ele><time>2008-09-08T15:00:41Z</time></trkpt>
<trkpt lat="46.05667736" lon="7.54926385"><ele>1926.619385</ele><time>2008-09-08T15:00:51Z</time></trkpt>
<trkpt lat="46.05666990" lon="7.54928229"><ele>1926.619385</ele><time>2008-09-08T15:00:52Z</time></trkpt>
<trkpt lat="46.05664778" lon="7.54949897"><ele>1929.022461</ele><time>2008-09-08T15:01:02Z</time></trkpt>
<trkpt lat="46.05663965" lon="7.54975009"><ele>1929.503174</ele><time>2008-09-08T15:01:14Z</time></trkpt>
<trkpt lat="46.05665029" lon="7.54992988"><ele>1930.945313</ele><time>2008-09-08T15:01:24Z</time></trkpt>
<trkpt lat="46.05644460" lon="7.55004656"><ele>1929.022461</ele><time>2008-09-08T15:02:06Z</time></trkpt>
<trkpt lat="46.05634728" lon="7.54986148"><ele>1929.503174</ele><time>2008-09-08T15:02:15Z</time></trkpt>
<trkpt lat="46.05622726" lon="7.54968043"><ele>1930.4646</ele><time>2008-09-08T15:02:22Z</time></trkpt>
<trkpt lat="46.05620253" lon="7.54966384"><ele>1930.945313</ele><time>2008-09-08T15:02:24Z</time></trkpt>
<trkpt lat="46.05603632" lon="7.54967742"><ele>1934.310059</ele><time>2008-09-08T15:02:34Z</time></trkpt>
<trkpt lat="46.05587413" lon="7.54965135"><ele>1939.597168</ele><time>2008-09-08T15:02:44Z</time></trkpt>
<trkpt lat="46.05575301" lon="7.54964833"><ele>1943.442383</ele><time>2008-09-08T15:02:52Z</time></trkpt>
<trkpt lat="46.05575913" lon="7.54971857"><ele>1943.923096</ele><time>2008-09-08T15:02:55Z</time></trkpt>
<trkpt lat="46.05591964" lon="7.54994815"><ele>1944.884277</ele><time>2008-09-08T15:03:05Z</time></trkpt>
<trkpt lat="46.05600237" lon="7.55008821"><ele>1945.36499</ele><time>2008-09-08T15:03:12Z</time></trkpt>
<trkpt lat="46.05601980" lon="7.55010623"><ele>1945.36499</ele><time>2008-09-08T15:03:14Z</time></trkpt>
<trkpt lat="46.05590229" lon="7.54994136"><ele>1945.36499</ele><time>2008-09-08T15:03:23Z</time></trkpt>
<trkpt lat="46.05587480" lon="7.54994405"><ele>1946.326416</ele><time>2008-09-08T15:03:28Z</time></trkpt>
<trkpt lat="46.05588536" lon="7.54994882"><ele>1946.326416</ele><time>2008-09-08T15:03:29Z</time></trkpt>
<trkpt lat="46.05594546" lon="7.55000817"><ele>1946.326416</ele><time>2008-09-08T15:03:38Z</time></trkpt>
<trkpt lat="46.05600824" lon="7.55002376"><ele>1945.845703</ele><time>2008-09-08T15:04:32Z</time></trkpt>
<trkpt lat="46.05602173" lon="7.55001605"><ele>1942.96167</ele><time>2008-09-08T15:04:40Z</time></trkpt>
<trkpt lat="46.05587094" lon="7.54994094"><ele>1960.265381</ele><time>2008-09-08T15:08:24Z</time></trkpt>
<trkpt lat="46.05587295" lon="7.54994379"><ele>1960.265381</ele><time>2008-09-08T15:08:25Z</time></trkpt>
<trkpt lat="46.05592383" lon="7.55000741"><ele>1958.823486</ele><time>2008-09-08T15:08:33Z</time></trkpt>
<trkpt lat="46.05599206" lon="7.55019408"><ele>1957.862305</ele><time>2008-09-08T15:08:43Z</time></trkpt>
<trkpt lat="46.05603539" lon="7.55044193"><ele>1956.900879</ele><time>2008-09-08T15:08:52Z</time></trkpt>
<trkpt lat="46.05603456" lon="7.55072591"><ele>1955.939453</ele><time>2008-09-08T15:09:02Z</time></trkpt>
<trkpt lat="46.05602743" lon="7.55095381"><ele>1955.939453</ele><time>2008-09-08T15:09:11Z</time></trkpt>
<trkpt lat="46.05591805" lon="7.55094878"><ele>1956.420166</ele><time>2008-09-08T15:09:19Z</time></trkpt>
<trkpt lat="46.05588888" lon="7.55089137"><ele>1956.900879</ele><time>2008-09-08T15:09:22Z</time></trkpt>
<trkpt lat="46.05580606" lon="7.55061342"><ele>1956.900879</ele><time>2008-09-08T15:09:34Z</time></trkpt>
<trkpt lat="46.05570942" lon="7.55040337"><ele>1956.900879</ele><time>2008-09-08T15:09:45Z</time></trkpt>
<trkpt lat="46.05553458" lon="7.55025267"><ele>1957.381592</ele><time>2008-09-08T15:09:57Z</time></trkpt>
<trkpt lat="46.05535445" lon="7.55029952"><ele>1958.342773</ele><time>2008-09-08T15:10:08Z</time></trkpt>
<trkpt lat="46.05522285" lon="7.55037487"><ele>1957.862305</ele><time>2008-09-08T15:10:18Z</time></trkpt>
<trkpt lat="46.05504742" lon="7.55046096"><ele>1957.862305</ele><time>2008-09-08T15:10:30Z</time></trkpt>
<trkpt lat="46.05491767" lon="7.55055408"><ele>1957.381592</ele><time>2008-09-08T15:10:39Z</time></trkpt>
<trkpt lat="46.05481675" lon="7.55063932"><ele>1956.420166</ele><time>2008-09-08T15:10:47Z</time></trkpt>
<trkpt lat="46.05461659" lon="7.55082490"><ele>1956.900879</ele><time>2008-09-08T15:10:57Z</time></trkpt>
<trkpt lat="46.05448533" lon="7.55083152"><ele>1956.900879</ele><time>2008-09-08T15:11:04Z</time></trkpt>
<trkpt lat="46.05432238" lon="7.55067386"><ele>1957.862305</ele><time>2008-09-08T15:11:12Z</time></trkpt>
<trkpt lat="46.05425349" lon="7.55053774"><ele>1957.862305</ele><time>2008-09-08T15:11:16Z</time></trkpt>
<trkpt lat="46.05414536" lon="7.55055173"><ele>1957.381592</ele><time>2008-09-08T15:11:21Z</time></trkpt>
<trkpt lat="46.05407621" lon="7.55066413"><ele>1957.381592</ele><time>2008-09-08T15:11:29Z</time></trkpt>
<trkpt lat="46.05407747" lon="7.55070814"><ele>1957.381592</ele><time>2008-09-08T15:11:31Z</time></trkpt>
<trkpt lat="46.05390086" lon="7.55090646"><ele>1957.862305</ele><time>2008-09-08T15:11:41Z</time></trkpt>
<trkpt lat="46.05381796" lon="7.55113662"><ele>1957.862305</ele><time>2008-09-08T15:11:49Z</time></trkpt>
<trkpt lat="46.05363180" lon="7.55127786"><ele>1957.862305</ele><time>2008-09-08T15:11:57Z</time></trkpt>
<trkpt lat="46.05339518" lon="7.55130895"><ele>1958.823486</ele><time>2008-09-08T15:12:05Z</time></trkpt>
<trkpt lat="46.05320784" lon="7.55148942"><ele>1957.862305</ele><time>2008-09-08T15:12:12Z</time></trkpt>
<trkpt lat="46.05310818" lon="7.55186182"><ele>1957.862305</ele><time>2008-09-08T15:12:20Z</time></trkpt>
<trkpt lat="46.05294742" lon="7.55200775"><ele>1956.900879</ele><time>2008-09-08T15:12:26Z</time></trkpt>
<trkpt lat="46.05282102" lon="7.55211244"><ele>1956.900879</ele><time>2008-09-08T15:12:30Z</time></trkpt>
<trkpt lat="46.05266059" lon="7.55236440"><ele>1956.420166</ele><time>2008-09-08T15:12:35Z</time></trkpt>
<trkpt lat="46.05252891" lon="7.55266339"><ele>1956.900879</ele><time>2008-09-08T15:12:43Z</time></trkpt>
<trkpt lat="46.05238080" lon="7.55285734"><ele>1956.900879</ele><time>2008-09-08T15:12:51Z</time></trkpt>
<trkpt lat="46.05231266" lon="7.55296891"><ele>1957.381592</ele><time>2008-09-08T15:12:58Z</time></trkpt>
<trkpt lat="46.05214854" lon="7.55308474"><ele>1956.420166</ele><time>2008-09-08T15:13:06Z</time></trkpt>
<trkpt lat="46.05187328" lon="7.55317393"><ele>1957.381592</ele><time>2008-09-08T15:13:15Z</time></trkpt>
<trkpt lat="46.05160992" lon="7.55324475"><ele>1957.381592</ele><time>2008-09-08T15:13:24Z</time></trkpt>
<trkpt lat="46.05143775" lon="7.55310595"><ele>1957.381592</ele><time>2008-09-08T15:13:31Z</time></trkpt>
<trkpt lat="46.05123374" lon="7.55311609"><ele>1957.862305</ele><time>2008-09-08T15:13:39Z</time></trkpt>
<trkpt lat="46.05096216" lon="7.55312699"><ele>1958.342773</ele><time>2008-09-08T15:13:49Z</time></trkpt>
<trkpt lat="46.05074088" lon="7.55303772"><ele>1958.342773</ele><time>2008-09-08T15:13:57Z</time></trkpt>
<trkpt lat="46.05065849" lon="7.55287687"><ele>1958.342773</ele><time>2008-09-08T15:14:02Z</time></trkpt>
<trkpt lat="46.05050770" lon="7.55285374"><ele>1958.342773</ele><time>2008-09-08T15:14:09Z</time></trkpt>
<trkpt lat="46.05033327" lon="7.55287302"><ele>1959.304199</ele><time>2008-09-08T15:14:18Z</time></trkpt>
<trkpt lat="46.05018273" lon="7.55291233"><ele>1959.784668</ele><time>2008-09-08T15:14:27Z</time></trkpt>
<trkpt lat="46.05016982" lon="7.55292348"><ele>1959.304199</ele><time>2008-09-08T15:14:33Z</time></trkpt>
<trkpt lat="46.05018181" lon="7.55294611"><ele>1958.342773</ele><time>2008-09-08T15:15:10Z</time></trkpt>
<trkpt lat="46.05020058" lon="7.55276749"><ele>1958.342773</ele><time>2008-09-08T15:21:08Z</time></trkpt>
<trkpt lat="46.05025758" lon="7.55278434"><ele>1958.342773</ele><time>2008-09-08T15:21:11Z</time></trkpt>
<trkpt lat="46.05049487" lon="7.55278031"><ele>1958.823486</ele><time>2008-09-08T15:21:20Z</time></trkpt>
<trkpt lat="46.05067408" lon="7.55282935"><ele>1958.823486</ele><time>2008-09-08T15:21:26Z</time></trkpt>
<trkpt lat="46.05072881" lon="7.55289464"><ele>1958.823486</ele><time>2008-09-08T15:21:28Z</time></trkpt>
<trkpt lat="46.05099192" lon="7.55306572"><ele>1958.823486</ele><time>2008-09-08T15:21:33Z</time></trkpt>
<trkpt lat="46.05146114" lon="7.55310419"><ele>1958.342773</ele><time>2008-09-08T15:21:40Z</time></trkpt>
<trkpt lat="46.05174956" lon="7.55327510"><ele>1957.862305</ele><time>2008-09-08T15:21:45Z</time></trkpt>
<trkpt lat="46.05192709" lon="7.55320352"><ele>1958.342773</ele><time>2008-09-08T15:21:48Z</time></trkpt>
<trkpt lat="46.05232431" lon="7.55300872"><ele>1959.304199</ele><time>2008-09-08T15:21:56Z</time></trkpt>
<trkpt lat="46.05249806" lon="7.55281166"><ele>1959.784668</ele><time>2008-09-08T15:22:03Z</time></trkpt>
<trkpt lat="46.05262170" lon="7.55252944"><ele>1959.304199</ele><time>2008-09-08T15:22:10Z</time></trkpt>
<trkpt lat="46.05276209" lon="7.55222225"><ele>1958.823486</ele><time>2008-09-08T15:22:17Z</time></trkpt>
<trkpt lat="46.05278833" lon="7.55217849"><ele>1958.823486</ele><time>2008-09-08T15:22:18Z</time></trkpt>
<trkpt lat="46.05308111" lon="7.55189233"><ele>1958.342773</ele><time>2008-09-08T15:22:27Z</time></trkpt>
<trkpt lat="46.05316635" lon="7.55171296"><ele>1957.862305</ele><time>2008-09-08T15:22:31Z</time></trkpt>
<trkpt lat="46.05319108" lon="7.55159872"><ele>1957.862305</ele><time>2008-09-08T15:22:33Z</time></trkpt>
<trkpt lat="46.05323969" lon="7.55137987"><ele>1957.381592</ele><time>2008-09-08T15:22:37Z</time></trkpt>
<trkpt lat="46.05342234" lon="7.55129848"><ele>1957.381592</ele><time>2008-09-08T15:22:42Z</time></trkpt>
<trkpt lat="46.05363029" lon="7.55126243"><ele>1956.900879</ele><time>2008-09-08T15:22:48Z</time></trkpt>
<trkpt lat="46.05365795" lon="7.55124450"><ele>1956.900879</ele><time>2008-09-08T15:22:49Z</time></trkpt>
<trkpt lat="46.05383204" lon="7.55105783"><ele>1955.458984</ele><time>2008-09-08T15:22:56Z</time></trkpt>
<trkpt lat="46.05398200" lon="7.55079271"><ele>1954.497559</ele><time>2008-09-08T15:23:04Z</time></trkpt>
<trkpt lat="46.05407394" lon="7.55066204"><ele>1954.497559</ele><time>2008-09-08T15:23:10Z</time></trkpt>
<trkpt lat="46.05419138" lon="7.55048594"><ele>1955.939453</ele><time>2008-09-08T15:23:20Z</time></trkpt>
<trkpt lat="46.05428643" lon="7.55054838"><ele>1956.420166</ele><time>2008-09-08T15:23:26Z</time></trkpt>
<trkpt lat="46.05437192" lon="7.55070378"><ele>1957.381592</ele><time>2008-09-08T15:23:33Z</time></trkpt>
<trkpt lat="46.05448047" lon="7.55082046"><ele>1956.900879</ele><time>2008-09-08T15:23:42Z</time></trkpt>
<trkpt lat="46.05459924" lon="7.55081710"><ele>1956.900879</ele><time>2008-09-08T15:23:49Z</time></trkpt>
<trkpt lat="46.05478138" lon="7.55071426"><ele>1957.381592</ele><time>2008-09-08T15:23:59Z</time></trkpt>
<trkpt lat="46.05497424" lon="7.55051116"><ele>1957.381592</ele><time>2008-09-08T15:24:11Z</time></trkpt>
<trkpt lat="46.05519536" lon="7.55039759"><ele>1956.420166</ele><time>2008-09-08T15:24:21Z</time></trkpt>
<trkpt lat="46.05538781" lon="7.55028184"><ele>1954.978271</ele><time>2008-09-08T15:24:31Z</time></trkpt>
<trkpt lat="46.05559082" lon="7.55030095"><ele>1952.094238</ele><time>2008-09-08T15:24:39Z</time></trkpt>
<trkpt lat="46.05584655" lon="7.55075416"><ele>1952.574951</ele><time>2008-09-08T15:25:13Z</time></trkpt>
<trkpt lat="46.05588921" lon="7.55095608"><ele>1951.61377</ele><time>2008-09-08T15:25:16Z</time></trkpt>
<trkpt lat="46.05602156" lon="7.55089061"><ele>1950.652344</ele><time>2008-09-08T15:25:20Z</time></trkpt>
<trkpt lat="46.05595535" lon="7.55000733"><ele>1945.36499</ele><time>2008-09-08T15:25:29Z</time></trkpt>
<trkpt lat="46.05589743" lon="7.54993885"><ele>1944.884277</ele><time>2008-09-08T15:25:30Z</time></trkpt>
<trkpt lat="46.05580070" lon="7.54982192"><ele>1944.403564</ele><time>2008-09-08T15:25:32Z</time></trkpt>
<trkpt lat="46.05579467" lon="7.54963467"><ele>1941.039063</ele><time>2008-09-08T15:25:36Z</time></trkpt>
<trkpt lat="46.05597848" lon="7.54963299"><ele>1938.635986</ele><time>2008-09-08T15:25:40Z</time></trkpt>
<trkpt lat="46.05604805" lon="7.54963316"><ele>1938.155273</ele><time>2008-09-08T15:25:41Z</time></trkpt>
<trkpt lat="46.05633882" lon="7.54978571"><ele>1935.27124</ele><time>2008-09-08T15:25:46Z</time></trkpt>
<trkpt lat="46.05636505" lon="7.54985671"><ele>1934.790771</ele><time>2008-09-08T15:25:47Z</time></trkpt>
<trkpt lat="46.05657670" lon="7.55000364"><ele>1933.348633</ele><time>2008-09-08T15:25:52Z</time></trkpt>
<trkpt lat="46.05665574" lon="7.54976719"><ele>1932.86792</ele><time>2008-09-08T15:25:55Z</time></trkpt>
<trkpt lat="46.05669061" lon="7.54926117"><ele>1929.022461</ele><time>2008-09-08T15:26:00Z</time></trkpt>
<trkpt lat="46.05673076" lon="7.54915154"><ele>1926.619385</ele><time>2008-09-08T15:26:02Z</time></trkpt>
<trkpt lat="46.05692354" lon="7.54893998"><ele>1923.735352</ele><time>2008-09-08T15:26:08Z</time></trkpt>
<trkpt lat="46.05713451" lon="7.54895213"><ele>1923.254883</ele><time>2008-09-08T15:26:11Z</time></trkpt>
<trkpt lat="46.05737742" lon="7.54893713"><ele>1922.77417</ele><time>2008-09-08T15:26:14Z</time></trkpt>
<trkpt lat="46.05775846" lon="7.54903075"><ele>1918.928955</ele><time>2008-09-08T15:26:19Z</time></trkpt>
<trkpt lat="46.05811687" lon="7.54916486"><ele>1918.448242</ele><time>2008-09-08T15:26:27Z</time></trkpt>
<trkpt lat="46.05841108" lon="7.54918255"><ele>1916.525635</ele><time>2008-09-08T15:26:36Z</time></trkpt>
<trkpt lat="46.05881031" lon="7.54943233"><ele>1911.718994</ele><time>2008-09-08T15:26:46Z</time></trkpt>
<trkpt lat="46.05889270" lon="7.54959494"><ele>1911.238281</ele><time>2008-09-08T15:26:48Z</time></trkpt>
<trkpt lat="46.05911683" lon="7.55015804"><ele>1907.393066</ele><time>2008-09-08T15:26:54Z</time></trkpt>
<trkpt lat="46.05932185" lon="7.55054059"><ele>1904.509033</ele><time>2008-09-08T15:26:58Z</time></trkpt>
<trkpt lat="46.05966342" lon="7.55066221"><ele>1900.18335</ele><time>2008-09-08T15:27:02Z</time></trkpt>
<trkpt lat="46.05974237" lon="7.55057520"><ele>1899.22168</ele><time>2008-09-08T15:27:03Z</time></trkpt>
<trkpt lat="46.06027228" lon="7.55022878"><ele>1893.453857</ele><time>2008-09-08T15:27:09Z</time></trkpt>
<trkpt lat="46.06100176" lon="7.55007036"><ele>1892.492676</ele><time>2008-09-08T15:27:16Z</time></trkpt>
<trkpt lat="46.06131851" lon="7.54965437"><ele>1890.569824</ele><time>2008-09-08T15:27:20Z</time></trkpt>
<trkpt lat="46.06138464" lon="7.54943644"><ele>1888.647461</ele><time>2008-09-08T15:27:22Z</time></trkpt>
<trkpt lat="46.06158447" lon="7.54910384"><ele>1885.282715</ele><time>2008-09-08T15:27:26Z</time></trkpt>
<trkpt lat="46.06228251" lon="7.54854184"><ele>1879.995361</ele><time>2008-09-08T15:27:34Z</time></trkpt>
<trkpt lat="46.06239013" lon="7.54847419"><ele>1879.514648</ele><time>2008-09-08T15:27:35Z</time></trkpt>
<trkpt lat="46.06301878" lon="7.54825350"><ele>1874.708252</ele><time>2008-09-08T15:27:40Z</time></trkpt>
<trkpt lat="46.06350275" lon="7.54772301"><ele>1862.69165</ele><time>2008-09-08T15:27:47Z</time></trkpt>
<trkpt lat="46.06339588" lon="7.54766014"><ele>1861.730469</ele><time>2008-09-08T15:27:49Z</time></trkpt>
<trkpt lat="46.06325288" lon="7.54771748"><ele>1860.769043</ele><time>2008-09-08T15:27:51Z</time></trkpt>
<trkpt lat="46.06304836" lon="7.54789693"><ele>1860.28833</ele><time>2008-09-08T15:27:54Z</time></trkpt>
<trkpt lat="46.06273421" lon="7.54789962"><ele>1859.327148</ele><time>2008-09-08T15:27:58Z</time></trkpt>
<trkpt lat="46.06235661" lon="7.54797648"><ele>1855.481934</ele><time>2008-09-08T15:28:03Z</time></trkpt>
<trkpt lat="46.06204949" lon="7.54813565"><ele>1852.117188</ele><time>2008-09-08T15:28:07Z</time></trkpt>
<trkpt lat="46.06173140" lon="7.54808486"><ele>1850.675049</ele><time>2008-09-08T15:28:11Z</time></trkpt>
<trkpt lat="46.06240992" lon="7.54778646"><ele>1841.062012</ele><time>2008-09-08T15:28:24Z</time></trkpt>
<trkpt lat="46.06314937" lon="7.54721180"><ele>1836.255615</ele><time>2008-09-08T15:28:32Z</time></trkpt>
<trkpt lat="46.06389192" lon="7.54661492"><ele>1829.04541</ele><time>2008-09-08T15:28:39Z</time></trkpt>
<trkpt lat="46.06428126" lon="7.54644452"><ele>1825.680908</ele><time>2008-09-08T15:28:42Z</time></trkpt>
<trkpt lat="46.06456432" lon="7.54611201"><ele>1819.432373</ele><time>2008-09-08T15:28:45Z</time></trkpt>
<trkpt lat="46.06463162" lon="7.54578419"><ele>1814.14502</ele><time>2008-09-08T15:28:47Z</time></trkpt>
<trkpt lat="46.06483891" lon="7.54503518"><ele>1802.609131</ele><time>2008-09-08T15:28:52Z</time></trkpt>
<trkpt lat="46.06515742" lon="7.54429221"><ele>1793.476807</ele><time>2008-09-08T15:28:57Z</time></trkpt>
<trkpt lat="46.06545053" lon="7.54382467"><ele>1787.228027</ele><time>2008-09-08T15:29:01Z</time></trkpt>
<trkpt lat="46.06576368" lon="7.54369500"><ele>1782.9021</ele><time>2008-09-08T15:29:04Z</time></trkpt>
<trkpt lat="46.06643415" lon="7.54339124"><ele>1774.731201</ele><time>2008-09-08T15:29:10Z</time></trkpt>
<trkpt lat="46.06676515" lon="7.54315747"><ele>1773.289307</ele><time>2008-09-08T15:29:13Z</time></trkpt>
<trkpt lat="46.06719908" lon="7.54252195"><ele>1768.482422</ele><time>2008-09-08T15:29:18Z</time></trkpt>
<trkpt lat="46.06783921" lon="7.54197168"><ele>1766.079102</ele><time>2008-09-08T15:29:24Z</time></trkpt>
<trkpt lat="46.06801699" lon="7.54180681"><ele>1764.637207</ele><time>2008-09-08T15:29:26Z</time></trkpt>
<trkpt lat="46.06810282" lon="7.54124220"><ele>1762.7146</ele><time>2008-09-08T15:29:30Z</time></trkpt>
<trkpt lat="46.06809008" lon="7.54109192"><ele>1762.233887</ele><time>2008-09-08T15:29:31Z</time></trkpt>
<trkpt lat="46.06815454" lon="7.54025758"><ele>1755.985107</ele><time>2008-09-08T15:29:37Z</time></trkpt>
<trkpt lat="46.06830239" lon="7.53975282"><ele>1753.101318</ele><time>2008-09-08T15:29:41Z</time></trkpt>
<trkpt lat="46.06848051" lon="7.53952660"><ele>1750.697998</ele><time>2008-09-08T15:29:45Z</time></trkpt>
<trkpt lat="46.06918518" lon="7.53911505"><ele>1748.294678</ele><time>2008-09-08T15:29:55Z</time></trkpt>
<trkpt lat="46.06926606" lon="7.53909510"><ele>1747.814209</ele><time>2008-09-08T15:29:56Z</time></trkpt>
<trkpt lat="46.06961844" lon="7.53929266"><ele>1744.449463</ele><time>2008-09-08T15:30:01Z</time></trkpt>
<trkpt lat="46.06979026" lon="7.53915587"><ele>1742.5271</ele><time>2008-09-08T15:30:04Z</time></trkpt>
<trkpt lat="46.06998020" lon="7.53890173"><ele>1739.642822</ele><time>2008-09-08T15:30:08Z</time></trkpt>
<trkpt lat="46.07028111" lon="7.53883853"><ele>1738.681641</ele><time>2008-09-08T15:30:12Z</time></trkpt>
<trkpt lat="46.07115274" lon="7.53896006"><ele>1738.200928</ele><time>2008-09-08T15:30:22Z</time></trkpt>
<trkpt lat="46.07145240" lon="7.53876141"><ele>1737.239502</ele><time>2008-09-08T15:30:27Z</time></trkpt>
<trkpt lat="46.07153680" lon="7.53858791"><ele>1736.27832</ele><time>2008-09-08T15:30:29Z</time></trkpt>
<trkpt lat="46.07171609" lon="7.53846268"><ele>1735.797607</ele><time>2008-09-08T15:30:31Z</time></trkpt>
<trkpt lat="46.07208741" lon="7.53801174"><ele>1731.47168</ele><time>2008-09-08T15:30:36Z</time></trkpt>
<trkpt lat="46.07219864" lon="7.53782063"><ele>1730.991211</ele><time>2008-09-08T15:30:38Z</time></trkpt>
<trkpt lat="46.07235789" lon="7.53771728"><ele>1730.510498</ele><time>2008-09-08T15:30:40Z</time></trkpt>
<trkpt lat="46.07287464" lon="7.53770169"><ele>1728.587891</ele><time>2008-09-08T15:30:45Z</time></trkpt>
<trkpt lat="46.07296013" lon="7.53768903"><ele>1728.587891</ele><time>2008-09-08T15:30:46Z</time></trkpt>
<trkpt lat="46.07325794" lon="7.53697867"><ele>1727.145996</ele><time>2008-09-08T15:30:54Z</time></trkpt>
<trkpt lat="46.07329013" lon="7.53651959"><ele>1724.742676</ele><time>2008-09-08T15:30:58Z</time></trkpt>
<trkpt lat="46.07366815" lon="7.53554779"><ele>1714.648682</ele><time>2008-09-08T15:31:07Z</time></trkpt>
<trkpt lat="46.07392732" lon="7.53488051"><ele>1709.361572</ele><time>2008-09-08T15:31:13Z</time></trkpt>
<trkpt lat="46.07403109" lon="7.53448832"><ele>1705.996582</ele><time>2008-09-08T15:31:17Z</time></trkpt>
<trkpt lat="46.07408708" lon="7.53443409"><ele>1705.0354</ele><time>2008-09-08T15:31:18Z</time></trkpt>
<trkpt lat="46.07430652" lon="7.53423820"><ele>1702.63208</ele><time>2008-09-08T15:31:21Z</time></trkpt>
<trkpt lat="46.07451447" lon="7.53375993"><ele>1696.864258</ele><time>2008-09-08T15:31:25Z</time></trkpt>
<trkpt lat="46.07466317" lon="7.53324755"><ele>1693.019043</ele><time>2008-09-08T15:31:29Z</time></trkpt>
<trkpt lat="46.07486584" lon="7.53297245"><ele>1691.096191</ele><time>2008-09-08T15:31:32Z</time></trkpt>
<trkpt lat="46.07510540" lon="7.53251681"><ele>1687.731689</ele><time>2008-09-08T15:31:36Z</time></trkpt>
<trkpt lat="46.07513800" lon="7.53236979"><ele>1687.250977</ele><time>2008-09-08T15:31:37Z</time></trkpt>
<trkpt lat="46.07535258" lon="7.53161115"><ele>1681.483154</ele><time>2008-09-08T15:31:42Z</time></trkpt>
<trkpt lat="46.07544746" lon="7.53136036"><ele>1680.04126</ele><time>2008-09-08T15:31:44Z</time></trkpt>
<trkpt lat="46.07584611" lon="7.53083104"><ele>1678.599365</ele><time>2008-09-08T15:31:51Z</time></trkpt>
<trkpt lat="46.07610871" lon="7.53050993"><ele>1679.079834</ele><time>2008-09-08T15:31:56Z</time></trkpt>
<trkpt lat="46.07624156" lon="7.53030424"><ele>1679.079834</ele><time>2008-09-08T15:32:02Z</time></trkpt>
<trkpt lat="46.07638506" lon="7.53011204"><ele>1680.04126</ele><time>2008-09-08T15:32:12Z</time></trkpt>
<trkpt lat="46.07656988" lon="7.53002604"><ele>1682.925049</ele><time>2008-09-08T15:32:21Z</time></trkpt>
<trkpt lat="46.07675663" lon="7.52993116"><ele>1683.886475</ele><time>2008-09-08T15:32:30Z</time></trkpt>
<trkpt lat="46.07682285" lon="7.52975657"><ele>1685.328369</ele><time>2008-09-08T15:32:36Z</time></trkpt>
<trkpt lat="46.07690533" lon="7.52936547"><ele>1689.654297</ele><time>2008-09-08T15:32:48Z</time></trkpt>
<trkpt lat="46.07704832" lon="7.52906707"><ele>1691.576904</ele><time>2008-09-08T15:32:59Z</time></trkpt>
<trkpt lat="46.07713918" lon="7.52870481"><ele>1694.94165</ele><time>2008-09-08T15:33:11Z</time></trkpt>
<trkpt lat="46.07732736" lon="7.52840557"><ele>1696.864258</ele><time>2008-09-08T15:33:23Z</time></trkpt>
<trkpt lat="46.07757814" lon="7.52808572"><ele>1697.825684</ele><time>2008-09-08T15:33:34Z</time></trkpt>
<trkpt lat="46.07777076" lon="7.52775564"><ele>1697.825684</ele><time>2008-09-08T15:33:42Z</time></trkpt>
<trkpt lat="46.07779817" lon="7.52771306"><ele>1697.825684</ele><time>2008-09-08T15:33:43Z</time></trkpt>
<trkpt lat="46.07804937" lon="7.52750628"><ele>1699.267578</ele><time>2008-09-08T15:33:50Z</time></trkpt>
<trkpt lat="46.07808198" lon="7.52747082"><ele>1699.267578</ele><time>2008-09-08T15:33:51Z</time></trkpt>
<trkpt lat="46.07831818" lon="7.52722037"><ele>1700.229004</ele><time>2008-09-08T15:33:58Z</time></trkpt>
<trkpt lat="46.07848775" lon="7.52683028"><ele>1699.748291</ele><time>2008-09-08T15:34:05Z</time></trkpt>
<trkpt lat="46.07859202" lon="7.52638847"><ele>1700.229004</ele><time>2008-09-08T15:34:12Z</time></trkpt>
<trkpt lat="46.07875044" lon="7.52620012"><ele>1700.229004</ele><time>2008-09-08T15:34:17Z</time></trkpt>
<trkpt lat="46.07902385" lon="7.52612066"><ele>1698.786865</ele><time>2008-09-08T15:34:22Z</time></trkpt>
<trkpt lat="46.07926140" lon="7.52592076"><ele>1697.825684</ele><time>2008-09-08T15:34:26Z</time></trkpt>
<trkpt lat="46.07976297" lon="7.52534559"><ele>1694.94165</ele><time>2008-09-08T15:34:35Z</time></trkpt>
<trkpt lat="46.08006262" lon="7.52465785"><ele>1693.980469</ele><time>2008-09-08T15:34:44Z</time></trkpt>
<trkpt lat="46.08033143" lon="7.52410842"><ele>1692.538574</ele><time>2008-09-08T15:34:52Z</time></trkpt>
<trkpt lat="46.08054592" lon="7.52385831"><ele>1692.057861</ele><time>2008-09-08T15:34:57Z</time></trkpt>
<trkpt lat="46.08073091" lon="7.52348908"><ele>1692.057861</ele><time>2008-09-08T15:35:03Z</time></trkpt>
<trkpt lat="46.08100240" lon="7.52309270"><ele>1693.499756</ele><time>2008-09-08T15:35:10Z</time></trkpt>
<trkpt lat="46.08113140" lon="7.52293495"><ele>1693.980469</ele><time>2008-09-08T15:35:13Z</time></trkpt>
<trkpt lat="46.08156089" lon="7.52263513"><ele>1696.383789</ele><time>2008-09-08T15:35:22Z</time></trkpt>
<trkpt lat="46.08211359" lon="7.52214261"><ele>1699.748291</ele><time>2008-09-08T15:36:02Z</time></trkpt>
<trkpt lat="46.08243462" lon="7.52168538"><ele>1700.709473</ele><time>2008-09-08T15:36:12Z</time></trkpt>
<trkpt lat="46.08262195" lon="7.52161522"><ele>1701.670898</ele><time>2008-09-08T15:36:17Z</time></trkpt>
<trkpt lat="46.08281876" lon="7.52168655"><ele>1704.074219</ele><time>2008-09-08T15:36:25Z</time></trkpt>
<trkpt lat="46.08315672" lon="7.52177850"><ele>1706.477295</ele><time>2008-09-08T15:36:38Z</time></trkpt>
<trkpt lat="46.08342695" lon="7.52171564"><ele>1707.438721</ele><time>2008-09-08T15:36:48Z</time></trkpt>
<trkpt lat="46.08368830" lon="7.52161849"><ele>1711.764893</ele><time>2008-09-08T15:36:58Z</time></trkpt>
<trkpt lat="46.08396725" lon="7.52150710"><ele>1714.648682</ele><time>2008-09-08T15:37:10Z</time></trkpt>
<trkpt lat="46.08423128" lon="7.52129763"><ele>1718.974609</ele><time>2008-09-08T15:37:22Z</time></trkpt>
<trkpt lat="46.08450855" lon="7.52093956"><ele>1720.897217</ele><time>2008-09-08T15:37:37Z</time></trkpt>
<trkpt lat="46.08468566" lon="7.52070512"><ele>1722.819824</ele><time>2008-09-08T15:37:47Z</time></trkpt>
<trkpt lat="46.08497299" lon="7.52043371"><ele>1725.703857</ele><time>2008-09-08T15:38:00Z</time></trkpt>
<trkpt lat="46.08531740" lon="7.52019038"><ele>1724.742676</ele><time>2008-09-08T15:38:14Z</time></trkpt>
<trkpt lat="46.08559862" lon="7.52003716"><ele>1725.223145</ele><time>2008-09-08T15:38:23Z</time></trkpt>
<trkpt lat="46.08606339" lon="7.52019969"><ele>1727.626465</ele><time>2008-09-08T15:38:35Z</time></trkpt>
<trkpt lat="46.08634762" lon="7.52007480"><ele>1729.549072</ele><time>2008-09-08T15:38:43Z</time></trkpt>
<trkpt lat="46.08668357" lon="7.51970943"><ele>1733.875</ele><time>2008-09-08T15:38:54Z</time></trkpt>
<trkpt lat="46.08701088" lon="7.51923032"><ele>1734.836426</ele><time>2008-09-08T15:39:06Z</time></trkpt>
<trkpt lat="46.08716662" lon="7.51886755"><ele>1734.355713</ele><time>2008-09-08T15:39:16Z</time></trkpt>
<trkpt lat="46.08732345" lon="7.51849565"><ele>1733.394287</ele><time>2008-09-08T15:39:26Z</time></trkpt>
<trkpt lat="46.08747122" lon="7.51831007"><ele>1733.394287</ele><time>2008-09-08T15:39:33Z</time></trkpt>
<trkpt lat="46.08770792" lon="7.51810765"><ele>1733.394287</ele><time>2008-09-08T15:39:41Z</time></trkpt>
<trkpt lat="46.08777640" lon="7.51804730"><ele>1728.587891</ele><time>2008-09-08T15:40:32Z</time></trkpt>
<trkpt lat="46.08762310" lon="7.51820857"><ele>1730.991211</ele><time>2008-09-08T15:40:40Z</time></trkpt>
<trkpt lat="46.08748974" lon="7.51828258"><ele>1730.510498</ele><time>2008-09-08T15:40:47Z</time></trkpt>
<trkpt lat="46.08740877" lon="7.51829859"><ele>1730.510498</ele><time>2008-09-08T15:40:52Z</time></trkpt>
<trkpt lat="46.08734515" lon="7.51820463"><ele>1730.510498</ele><time>2008-09-08T15:40:56Z</time></trkpt>
<trkpt lat="46.08729872" lon="7.51812391"><ele>1731.47168</ele><time>2008-09-08T15:41:02Z</time></trkpt>
<trkpt lat="46.08729537" lon="7.51813472"><ele>1734.836426</ele><time>2008-09-08T15:41:35Z</time></trkpt>
<trkpt lat="46.08722546" lon="7.51809843"><ele>1733.875</ele><time>2008-09-08T15:41:39Z</time></trkpt>
<trkpt lat="46.08715405" lon="7.51808745"><ele>1732.913574</ele><time>2008-09-08T15:41:42Z</time></trkpt>
<trkpt lat="46.08734935" lon="7.51745797"><ele>1729.068359</ele><time>2008-09-08T15:42:00Z</time></trkpt>
<trkpt lat="46.08745043" lon="7.51722830"><ele>1728.107178</ele><time>2008-09-08T15:42:06Z</time></trkpt>
<trkpt lat="46.08755973" lon="7.51730902"><ele>1726.18457</ele><time>2008-09-08T15:42:11Z</time></trkpt>
<trkpt lat="46.08764229" lon="7.51731807"><ele>1725.223145</ele><time>2008-09-08T15:42:13Z</time></trkpt>
<trkpt lat="46.08777816" lon="7.51728069"><ele>1724.261963</ele><time>2008-09-08T15:42:16Z</time></trkpt>
<trkpt lat="46.08799232" lon="7.51739955"><ele>1718.974609</ele><time>2008-09-08T15:42:22Z</time></trkpt>
<trkpt lat="46.08805250" lon="7.51738152"><ele>1716.571289</ele><time>2008-09-08T15:42:24Z</time></trkpt>
<trkpt lat="46.08814077" lon="7.51729033"><ele>1714.648682</ele><time>2008-09-08T15:42:26Z</time></trkpt>
<trkpt lat="46.08836967" lon="7.51718371"><ele>1711.28418</ele><time>2008-09-08T15:42:30Z</time></trkpt>
<trkpt lat="46.08861350" lon="7.51705949"><ele>1708.400146</ele><time>2008-09-08T15:42:34Z</time></trkpt>
<trkpt lat="46.08952789" lon="7.51684542"><ele>1691.096191</ele><time>2008-09-08T15:43:58Z</time></trkpt>
<trkpt lat="46.08990038" lon="7.51672279"><ele>1686.770264</ele><time>2008-09-08T15:44:06Z</time></trkpt>
<trkpt lat="46.09025225" lon="7.51648592"><ele>1684.8479</ele><time>2008-09-08T15:44:13Z</time></trkpt>
<trkpt lat="46.09061929" lon="7.51617260"><ele>1681.483154</ele><time>2008-09-08T15:44:19Z</time></trkpt>
<trkpt lat="46.09079406" lon="7.51600639"><ele>1681.002686</ele><time>2008-09-08T15:44:22Z</time></trkpt>
<trkpt lat="46.09104132" lon="7.51593472"><ele>1681.483154</ele><time>2008-09-08T15:44:27Z</time></trkpt>
<trkpt lat="46.09137090" lon="7.51582350"><ele>1682.44458</ele><time>2008-09-08T15:44:36Z</time></trkpt>
<trkpt lat="46.09165069" lon="7.51576466"><ele>1681.483154</ele><time>2008-09-08T15:44:44Z</time></trkpt>
<trkpt lat="46.09185730" lon="7.51575435"><ele>1678.599365</ele><time>2008-09-08T15:44:50Z</time></trkpt>
<trkpt lat="46.09220054" lon="7.51561403"><ele>1678.118652</ele><time>2008-09-08T15:44:58Z</time></trkpt>
<trkpt lat="46.09232727" lon="7.51563608"><ele>1678.599365</ele><time>2008-09-08T15:45:02Z</time></trkpt>
<trkpt lat="46.09253691" lon="7.51577480"><ele>1679.079834</ele><time>2008-09-08T15:45:10Z</time></trkpt>
<trkpt lat="46.09260036" lon="7.51582794"><ele>1678.599365</ele><time>2008-09-08T15:45:12Z</time></trkpt>
<trkpt lat="46.09287118" lon="7.51598284"><ele>1679.079834</ele><time>2008-09-08T15:45:19Z</time></trkpt>
<trkpt lat="46.09310185" lon="7.51595543"><ele>1676.196045</ele><time>2008-09-08T15:45:30Z</time></trkpt>
<trkpt lat="46.09327150" lon="7.51559626"><ele>1674.273193</ele><time>2008-09-08T15:45:40Z</time></trkpt>
<trkpt lat="46.09344014" lon="7.51557179"><ele>1673.79248</ele><time>2008-09-08T15:45:46Z</time></trkpt>
<trkpt lat="46.09381875" lon="7.51556089"><ele>1673.312012</ele><time>2008-09-08T15:45:57Z</time></trkpt>
<trkpt lat="46.09423156" lon="7.51559375"><ele>1673.79248</ele><time>2008-09-08T15:46:09Z</time></trkpt>
<trkpt lat="46.09430457" lon="7.51560775"><ele>1674.273193</ele><time>2008-09-08T15:46:10Z</time></trkpt>
<trkpt lat="46.09481678" lon="7.51582333"><ele>1672.831299</ele><time>2008-09-08T15:46:16Z</time></trkpt>
<trkpt lat="46.09549907" lon="7.51616397"><ele>1671.38916</ele><time>2008-09-08T15:46:23Z</time></trkpt>
<trkpt lat="46.09596997" lon="7.51622331"><ele>1671.869873</ele><time>2008-09-08T15:46:27Z</time></trkpt>
<trkpt lat="46.09620784" lon="7.51609473"><ele>1669.947266</ele><time>2008-09-08T15:46:31Z</time></trkpt>
<trkpt lat="46.09620240" lon="7.51605392"><ele>1668.505371</ele><time>2008-09-08T15:46:32Z</time></trkpt>
<trkpt lat="46.09610014" lon="7.51598443"><ele>1664.179443</ele><time>2008-09-08T15:46:37Z</time></trkpt>
<trkpt lat="46.09573670" lon="7.51593917"><ele>1660.334229</ele><time>2008-09-08T15:46:44Z</time></trkpt>
<trkpt lat="46.09546538" lon="7.51580589"><ele>1656.969482</ele><time>2008-09-08T15:46:48Z</time></trkpt>
<trkpt lat="46.09489859" lon="7.51530851"><ele>1654.566162</ele><time>2008-09-08T15:46:55Z</time></trkpt>
<trkpt lat="46.09453239" lon="7.51462748"><ele>1650.240479</ele><time>2008-09-08T15:47:00Z</time></trkpt>
<trkpt lat="46.09431127" lon="7.51405290"><ele>1641.107666</ele><time>2008-09-08T15:47:04Z</time></trkpt>
<trkpt lat="46.09423349" lon="7.51387931"><ele>1638.223877</ele><time>2008-09-08T15:47:07Z</time></trkpt>
<trkpt lat="46.09417339" lon="7.51375141"><ele>1634.378662</ele><time>2008-09-08T15:47:09Z</time></trkpt>
<trkpt lat="46.09403182" lon="7.51362819"><ele>1628.61084</ele><time>2008-09-08T15:47:13Z</time></trkpt>
<trkpt lat="46.09367257" lon="7.51354312"><ele>1618.036133</ele><time>2008-09-08T15:47:23Z</time></trkpt>
<trkpt lat="46.09340846" lon="7.51344186"><ele>1614.671631</ele><time>2008-09-08T15:47:29Z</time></trkpt>
<trkpt lat="46.09322716" lon="7.51341571"><ele>1612.268311</ele><time>2008-09-08T15:47:33Z</time></trkpt>
<trkpt lat="46.09303823" lon="7.51352568"><ele>1605.539063</ele><time>2008-09-08T15:47:38Z</time></trkpt>
<trkpt lat="46.09296137" lon="7.51358712"><ele>1605.539063</ele><time>2008-09-08T15:47:40Z</time></trkpt>
<trkpt lat="46.09260170" lon="7.51368360"><ele>1599.290527</ele><time>2008-09-08T15:47:50Z</time></trkpt>
<trkpt lat="46.09229811" lon="7.51364898"><ele>1595.925781</ele><time>2008-09-08T15:48:00Z</time></trkpt>
<trkpt lat="46.09117988" lon="7.51320851"><ele>1594.003174</ele><time>2008-09-08T15:48:30Z</time></trkpt>
<trkpt lat="46.09068065" lon="7.51314213"><ele>1591.119141</ele><time>2008-09-08T15:48:41Z</time></trkpt>
<trkpt lat="46.09016701" lon="7.51311472"><ele>1588.716064</ele><time>2008-09-08T15:48:52Z</time></trkpt>
<trkpt lat="46.08977440" lon="7.51301330"><ele>1585.351318</ele><time>2008-09-08T15:49:01Z</time></trkpt>
<trkpt lat="46.08912966" lon="7.51290768"><ele>1581.506104</ele><time>2008-09-08T15:49:16Z</time></trkpt>
<trkpt lat="46.08868400" lon="7.51281037"><ele>1580.064209</ele><time>2008-09-08T15:49:28Z</time></trkpt>
<trkpt lat="46.08762570" lon="7.51241994"><ele>1558.915039</ele><time>2008-09-08T15:49:54Z</time></trkpt>
<trkpt lat="46.08743065" lon="7.51244542"><ele>1556.992432</ele><time>2008-09-08T15:49:58Z</time></trkpt>
<trkpt lat="46.08700711" lon="7.51227519"><ele>1549.782715</ele><time>2008-09-08T15:50:06Z</time></trkpt>
<trkpt lat="46.08640890" lon="7.51206723"><ele>1548.340576</ele><time>2008-09-08T15:50:15Z</time></trkpt>
<trkpt lat="46.08568981" lon="7.51164495"><ele>1547.859863</ele><time>2008-09-08T15:50:30Z</time></trkpt>
<trkpt lat="46.08525764" lon="7.51143674"><ele>1547.859863</ele><time>2008-09-08T15:50:38Z</time></trkpt>
<trkpt lat="46.08447553" lon="7.51089594"><ele>1518.539795</ele><time>2008-09-08T15:51:07Z</time></trkpt>
<trkpt lat="46.08405392" lon="7.51044818"><ele>1518.059082</ele><time>2008-09-08T15:51:48Z</time></trkpt>
<trkpt lat="46.08388921" lon="7.51031734"><ele>1511.810547</ele><time>2008-09-08T15:51:52Z</time></trkpt>
<trkpt lat="46.08379517" lon="7.51028306"><ele>1511.329834</ele><time>2008-09-08T15:51:54Z</time></trkpt>
<trkpt lat="46.08361714" lon="7.51024869"><ele>1510.849121</ele><time>2008-09-08T15:51:57Z</time></trkpt>
<trkpt lat="46.08319653" lon="7.51005909"><ele>1504.600586</ele><time>2008-09-08T15:52:04Z</time></trkpt>
<trkpt lat="46.08294541" lon="7.50997804"><ele>1494.506592</ele><time>2008-09-08T15:52:17Z</time></trkpt>
<trkpt lat="46.08276143" lon="7.50994108"><ele>1488.258301</ele><time>2008-09-08T15:52:23Z</time></trkpt>
<trkpt lat="46.08252221" lon="7.50993521"><ele>1479.606201</ele><time>2008-09-08T15:52:32Z</time></trkpt>
<trkpt lat="46.08233470" lon="7.50980278"><ele>1475.280273</ele><time>2008-09-08T15:52:46Z</time></trkpt>
<trkpt lat="46.08240872" lon="7.50975123"><ele>1465.667236</ele><time>2008-09-08T15:52:59Z</time></trkpt>
<trkpt lat="46.08305044" lon="7.50952944"><ele>1455.092773</ele><time>2008-09-08T15:53:24Z</time></trkpt>
<trkpt lat="46.08368126" lon="7.50923465"><ele>1450.766602</ele><time>2008-09-08T15:54:12Z</time></trkpt>
<trkpt lat="46.08371411" lon="7.50921529"><ele>1450.286133</ele><time>2008-09-08T15:54:14Z</time></trkpt>
<trkpt lat="46.08391746" lon="7.50911848"><ele>1448.363281</ele><time>2008-09-08T15:54:20Z</time></trkpt>
<trkpt lat="46.08398686" lon="7.50907196"><ele>1445.479492</ele><time>2008-09-08T15:54:37Z</time></trkpt>
<trkpt lat="46.08411041" lon="7.50895872"><ele>1440.192383</ele><time>2008-09-08T15:55:17Z</time></trkpt>
</trkseg></trk></gpx>